<?xml version="1.0" encoding="UTF-8" standalone="no" ?><gpx xmlns="http://www.topografix.com/GPX/1/1" xmlns:gpxx="http://www.garmin.com/xmlschemas/GpxExtensions/v3" xmlns:gpxtrkx="http://www.garmin.com/xmlschemas/TrackStatsExtension/v1" xmlns:wptx1="http://www.garmin.com/xmlschemas/WaypointExtension/v1" xmlns:gpxtpx="http://www.garmin.com/xmlschemas/TrackPointExtension/v1" creator="GPSMAP 65s" version="1.1" xmlns:xsi="http://www.w3.org/2001/XMLSchema-instance" xsi:schemaLocation="http://www.topografix.com/GPX/1/1 http://www.topografix.com/GPX/1/1/gpx.xsd http://www.garmin.com/xmlschemas/GpxExtensions/v3 http://www8.garmin.com/xmlschemas/GpxExtensionsv3.xsd http://www.garmin.com/xmlschemas/TrackStatsExtension/v1 http://www8.garmin.com/xmlschemas/TrackStatsExtension.xsd http://www.garmin.com/xmlschemas/WaypointExtension/v1 http://www8.garmin.com/xmlschemas/WaypointExtensionv1.xsd http://www.garmin.com/xmlschemas/TrackPointExtension/v1 http://www.garmin.com/xmlschemas/TrackPointExtensionv1.xsd"><metadata><link href="http://www.garmin.com"><text>Garmin International</text></link><time>2026-08-30T03:16:00Z</time></metadata><trk><name>2026-08-30ДУБР15:32</name><extensions><gpxx:TrackExtension><gpxx:DisplayColor>Red</gpxx:DisplayColor></gpxx:TrackExtension><gpxtrkx:TrackStatsExtension><gpxtrkx:Distance>9867.000</gpxtrkx:Distance><gpxtrkx:TotalElapsedTime>22857</gpxtrkx:TotalElapsedTime><gpxtrkx:MovingTime>8593</gpxtrkx:MovingTime><gpxtrkx:StoppedTime>14255</gpxtrkx:StoppedTime><gpxtrkx:MovingSpeed>1.148</gpxtrkx:MovingSpeed><gpxtrkx:MaxSpeed>2.501</gpxtrkx:MaxSpeed><gpxtrkx:MaxElevation>87.922</gpxtrkx:MaxElevation><gpxtrkx:MinElevation>58.811</gpxtrkx:MinElevation><gpxtrkx:Ascent>29.000</gpxtrkx:Ascent><gpxtrkx:Descent>27.092</gpxtrkx:Descent><gpxtrkx:AvgAscentRate>0.004</gpxtrkx:AvgAscentRate><gpxtrkx:MaxAscentRate>0.023</gpxtrkx:MaxAscentRate><gpxtrkx:AvgDescentRate>0.004</gpxtrkx:AvgDescentRate><gpxtrkx:MaxDescentRate>-0.176</gpxtrkx:MaxDescentRate></gpxtrkx:TrackStatsExtension></extensions><trkseg><trkpt lat="59.4428467937" lon="30.2612823341"><ele>66.62</ele><time>2026-08-29T20:55:03Z</time></trkpt><trkpt lat="59.4428467937" lon="30.2612851840"><ele>66.62</ele><time>2026-08-29T20:55:04Z</time></trkpt><trkpt lat="59.4428798184" lon="30.2613098267"><ele>66.43</ele><time>2026-08-29T20:55:39Z</time></trkpt><trkpt lat="59.4428815786" lon="30.2613015287"><ele>58.81</ele><time>2026-08-29T20:56:12Z</time></trkpt><trkpt lat="59.4428847637" lon="30.2612998523"><ele>64.57</ele><time>2026-08-29T20:56:13Z</time></trkpt><trkpt lat="59.4428864401" lon="30.2613007743"><ele>71.99</ele><time>2026-08-29T20:56:14Z</time></trkpt><trkpt lat="59.4428873621" lon="30.2613018639"><ele>70.95</ele><time>2026-08-29T20:56:15Z</time></trkpt><trkpt lat="59.4428905472" lon="30.2613051329"><ele>67.75</ele><time>2026-08-29T20:56:17Z</time></trkpt><trkpt lat="59.4428730290" lon="30.2613209747"><ele>65.69</ele><time>2026-08-29T20:56:25Z</time></trkpt><trkpt lat="59.4429317024" lon="30.2613321226"><ele>64.90</ele><time>2026-08-29T20:56:43Z</time></trkpt><trkpt lat="59.4429333787" lon="30.2613233216"><ele>67.56</ele><time>2026-08-29T20:56:47Z</time></trkpt><trkpt lat="59.4429326244" lon="30.2613187954"><ele>68.66</ele><time>2026-08-29T20:56:49Z</time></trkpt><trkpt lat="59.4429319538" lon="30.2613156941"><ele>67.38</ele><time>2026-08-29T20:56:51Z</time></trkpt><trkpt lat="59.4428714365" lon="30.2612986788"><ele>67.35</ele><time>2026-08-29T20:57:40Z</time></trkpt><trkpt lat="59.4428937323" lon="30.2613267582"><ele>67.63</ele><time>2026-08-29T20:58:31Z</time></trkpt><trkpt lat="59.4429127593" lon="30.2613162808"><ele>67.59</ele><time>2026-08-29T20:59:13Z</time></trkpt><trkpt lat="59.4429352228" lon="30.2613264229"><ele>67.80</ele><time>2026-08-29T20:59:49Z</time></trkpt><trkpt lat="59.4429204706" lon="30.2613189630"><ele>68.58</ele><time>2026-08-29T21:00:18Z</time></trkpt><trkpt lat="59.4428998511" lon="30.2613244951"><ele>68.13</ele><time>2026-08-29T21:00:52Z</time></trkpt><trkpt lat="59.4428847637" lon="30.2613457851"><ele>68.49</ele><time>2026-08-29T21:01:19Z</time></trkpt><trkpt lat="59.4428870268" lon="30.2612885367"><ele>68.64</ele><time>2026-08-29T21:01:39Z</time></trkpt><trkpt lat="59.4429037906" lon="30.2612810768"><ele>68.67</ele><time>2026-08-29T21:02:11Z</time></trkpt><trkpt lat="59.4428905472" lon="30.2612773888"><ele>68.10</ele><time>2026-08-29T21:02:34Z</time></trkpt><trkpt lat="59.4429003540" lon="30.2612903807"><ele>68.13</ele><time>2026-08-29T21:03:12Z</time></trkpt><trkpt lat="59.4428501464" lon="30.2613078989"><ele>68.12</ele><time>2026-08-29T21:03:42Z</time></trkpt><trkpt lat="59.4428467937" lon="30.2612935659"><ele>67.96</ele><time>2026-08-29T21:04:09Z</time></trkpt><trkpt lat="59.4428576902" lon="30.2612793166"><ele>68.48</ele><time>2026-08-29T21:04:37Z</time></trkpt><trkpt lat="59.4428768847" lon="30.2612874471"><ele>68.53</ele><time>2026-08-29T21:04:41Z</time></trkpt><trkpt lat="59.4429089874" lon="30.2612502314"><ele>68.50</ele><time>2026-08-29T21:04:55Z</time></trkpt><trkpt lat="59.4429326244" lon="30.2611882892"><ele>68.68</ele><time>2026-08-29T21:05:11Z</time></trkpt><trkpt lat="59.4429434370" lon="30.2612043824"><ele>68.82</ele><time>2026-08-29T21:06:01Z</time></trkpt><trkpt lat="59.4429484662" lon="30.2612151951"><ele>66.75</ele><time>2026-08-29T21:06:27Z</time></trkpt><trkpt lat="59.4429934770" lon="30.2611564379"><ele>68.50</ele><time>2026-08-29T21:06:36Z</time></trkpt><trkpt lat="59.4430229813" lon="30.2610571962"><ele>66.83</ele><time>2026-08-29T21:06:41Z</time></trkpt><trkpt lat="59.4430347998" lon="30.2610174660"><ele>69.22</ele><time>2026-08-29T21:06:43Z</time></trkpt><trkpt lat="59.4430413377" lon="30.2609837707"><ele>68.53</ele><time>2026-08-29T21:06:45Z</time></trkpt><trkpt lat="59.4430425949" lon="30.2608123608"><ele>68.38</ele><time>2026-08-29T21:07:02Z</time></trkpt><trkpt lat="59.4430360571" lon="30.2608057391"><ele>66.10</ele><time>2026-08-29T21:07:18Z</time></trkpt><trkpt lat="59.4430424273" lon="30.2608113550"><ele>68.48</ele><time>2026-08-29T21:07:29Z</time></trkpt><trkpt lat="59.4430345483" lon="30.2608197369"><ele>68.14</ele><time>2026-08-29T21:07:51Z</time></trkpt><trkpt lat="59.4429446943" lon="30.2605398651"><ele>68.65</ele><time>2026-08-29T21:08:10Z</time></trkpt><trkpt lat="59.4428786449" lon="30.2603990491"><ele>69.18</ele><time>2026-08-29T21:08:25Z</time></trkpt><trkpt lat="59.4428455364" lon="30.2602905873"><ele>69.87</ele><time>2026-08-29T21:08:47Z</time></trkpt><trkpt lat="59.4429033715" lon="30.2604801860"><ele>68.76</ele><time>2026-08-29T21:09:05Z</time></trkpt><trkpt lat="59.4430012722" lon="30.2606795914"><ele>68.92</ele><time>2026-08-29T21:09:17Z</time></trkpt><trkpt lat="59.4430274237" lon="30.2607924957"><ele>68.96</ele><time>2026-08-29T21:09:22Z</time></trkpt><trkpt lat="59.4430293515" lon="30.2608304657"><ele>68.73</ele><time>2026-08-29T21:09:24Z</time></trkpt><trkpt lat="59.4429272600" lon="30.2608324774"><ele>68.83</ele><time>2026-08-29T21:09:37Z</time></trkpt><trkpt lat="59.4428515714" lon="30.2607221715"><ele>68.82</ele><time>2026-08-29T21:09:53Z</time></trkpt><trkpt lat="59.4427156169" lon="30.2606640849"><ele>69.14</ele><time>2026-08-29T21:10:12Z</time></trkpt><trkpt lat="59.4426729530" lon="30.2606746461"><ele>68.90</ele><time>2026-08-29T21:10:55Z</time></trkpt><trkpt lat="59.4426826760" lon="30.2607523464"><ele>67.40</ele><time>2026-08-29T21:11:21Z</time></trkpt><trkpt lat="59.4426856935" lon="30.2607769892"><ele>68.98</ele><time>2026-08-29T21:11:32Z</time></trkpt><trkpt lat="59.4426748808" lon="30.2607732173"><ele>68.78</ele><time>2026-08-29T21:11:36Z</time></trkpt><trkpt lat="59.4425871223" lon="30.2606545296"><ele>68.63</ele><time>2026-08-29T21:11:47Z</time></trkpt><trkpt lat="59.4424352422" lon="30.2605476603"><ele>68.79</ele><time>2026-08-29T21:12:04Z</time></trkpt><trkpt lat="59.4422568753" lon="30.2605499234"><ele>68.83</ele><time>2026-08-29T21:12:20Z</time></trkpt><trkpt lat="59.4421289675" lon="30.2604750730"><ele>68.95</ele><time>2026-08-29T21:12:35Z</time></trkpt><trkpt lat="59.4420503452" lon="30.2604686189"><ele>69.02</ele><time>2026-08-29T21:12:44Z</time></trkpt><trkpt lat="59.4419345912" lon="30.2603759989"><ele>69.09</ele><time>2026-08-29T21:12:54Z</time></trkpt><trkpt lat="59.4417455792" lon="30.2602338418"><ele>69.34</ele><time>2026-08-29T21:13:10Z</time></trkpt><trkpt lat="59.4415906817" lon="30.2600591630"><ele>69.42</ele><time>2026-08-29T21:13:28Z</time></trkpt><trkpt lat="59.4414723292" lon="30.2598886751"><ele>69.67</ele><time>2026-08-29T21:13:43Z</time></trkpt><trkpt lat="59.4413620234" lon="30.2597476915"><ele>70.28</ele><time>2026-08-29T21:13:58Z</time></trkpt><trkpt lat="59.4413709920" lon="30.2597043570"><ele>70.30</ele><time>2026-08-29T21:14:38Z</time></trkpt><trkpt lat="59.4413619395" lon="30.2597094700"><ele>70.25</ele><time>2026-08-29T21:15:00Z</time></trkpt><trkpt lat="59.4413391408" lon="30.2597763576"><ele>69.74</ele><time>2026-08-29T21:15:24Z</time></trkpt><trkpt lat="59.4412983209" lon="30.2597481944"><ele>70.01</ele><time>2026-08-29T21:15:30Z</time></trkpt><trkpt lat="59.4412802160" lon="30.2597155049"><ele>70.20</ele><time>2026-08-29T21:15:33Z</time></trkpt><trkpt lat="59.4411690719" lon="30.2594556659"><ele>69.97</ele><time>2026-08-29T21:15:49Z</time></trkpt><trkpt lat="59.4410433434" lon="30.2591250837"><ele>69.97</ele><time>2026-08-29T21:16:06Z</time></trkpt><trkpt lat="59.4408686645" lon="30.2589860279"><ele>70.22</ele><time>2026-08-29T21:16:22Z</time></trkpt><trkpt lat="59.4407348894" lon="30.2587893885"><ele>70.40</ele><time>2026-08-29T21:16:38Z</time></trkpt><trkpt lat="59.4406246673" lon="30.2585043199"><ele>70.51</ele><time>2026-08-29T21:16:55Z</time></trkpt><trkpt lat="59.4405660778" lon="30.2583814412"><ele>70.77</ele><time>2026-08-29T21:17:03Z</time></trkpt><trkpt lat="59.4404995255" lon="30.2582435589"><ele>70.61</ele><time>2026-08-29T21:17:11Z</time></trkpt><trkpt lat="59.4404064864" lon="30.2580102906"><ele>70.92</ele><time>2026-08-29T21:17:25Z</time></trkpt><trkpt lat="59.4403477293" lon="30.2577345259"><ele>70.96</ele><time>2026-08-29T21:17:40Z</time></trkpt><trkpt lat="59.4403002877" lon="30.2574842423"><ele>71.29</ele><time>2026-08-29T21:17:56Z</time></trkpt><trkpt lat="59.4402496610" lon="30.2572539914"><ele>70.21</ele><time>2026-08-29T21:18:07Z</time></trkpt><trkpt lat="59.4401336554" lon="30.2570081502"><ele>71.23</ele><time>2026-08-29T21:18:22Z</time></trkpt><trkpt lat="59.4401592202" lon="30.2569682524"><ele>71.82</ele><time>2026-08-29T21:18:51Z</time></trkpt><trkpt lat="59.4401246868" lon="30.2569176257"><ele>66.80</ele><time>2026-08-29T21:19:15Z</time></trkpt><trkpt lat="59.4401249383" lon="30.2569150273"><ele>73.79</ele><time>2026-08-29T21:19:16Z</time></trkpt><trkpt lat="59.4401135389" lon="30.2568840981"><ele>70.68</ele><time>2026-08-29T21:19:30Z</time></trkpt><trkpt lat="59.4399681967" lon="30.2567233332"><ele>71.64</ele><time>2026-08-29T21:19:47Z</time></trkpt><trkpt lat="59.4398966990" lon="30.2565863729"><ele>71.80</ele><time>2026-08-29T21:19:56Z</time></trkpt><trkpt lat="59.4397739880" lon="30.2563014720"><ele>71.73</ele><time>2026-08-29T21:20:13Z</time></trkpt><trkpt lat="59.4396575633" lon="30.2560898289"><ele>72.11</ele><time>2026-08-29T21:20:30Z</time></trkpt><trkpt lat="59.4395315833" lon="30.2560206782"><ele>72.38</ele><time>2026-08-29T21:20:46Z</time></trkpt><trkpt lat="59.4393652864" lon="30.2559995558"><ele>72.44</ele><time>2026-08-29T21:21:02Z</time></trkpt><trkpt lat="59.4392029289" lon="30.2560526971"><ele>72.94</ele><time>2026-08-29T21:21:19Z</time></trkpt><trkpt lat="59.4390278310" lon="30.2561304811"><ele>73.30</ele><time>2026-08-29T21:21:36Z</time></trkpt><trkpt lat="59.4390461873" lon="30.2561223507"><ele>73.76</ele><time>2026-08-29T21:21:59Z</time></trkpt><trkpt lat="59.4390442595" lon="30.2561283857"><ele>68.33</ele><time>2026-08-29T21:22:10Z</time></trkpt><trkpt lat="59.4390440919" lon="30.2561284695"><ele>69.04</ele><time>2026-08-29T21:22:11Z</time></trkpt><trkpt lat="59.4390423317" lon="30.2561287209"><ele>79.14</ele><time>2026-08-29T21:22:12Z</time></trkpt><trkpt lat="59.4390399847" lon="30.2561294753"><ele>76.54</ele><time>2026-08-29T21:22:13Z</time></trkpt><trkpt lat="59.4390365481" lon="30.2561332472"><ele>73.52</ele><time>2026-08-29T21:22:15Z</time></trkpt><trkpt lat="59.4390362967" lon="30.2561346721"><ele>73.73</ele><time>2026-08-29T21:22:16Z</time></trkpt><trkpt lat="59.4390385598" lon="30.2561399527"><ele>68.17</ele><time>2026-08-29T21:22:22Z</time></trkpt><trkpt lat="59.4390391465" lon="30.2561390307"><ele>68.18</ele><time>2026-08-29T21:22:23Z</time></trkpt><trkpt lat="59.4390420802" lon="30.2561324928"><ele>73.74</ele><time>2026-08-29T21:22:31Z</time></trkpt><trkpt lat="59.4390443433" lon="30.2561290562"><ele>73.41</ele><time>2026-08-29T21:22:32Z</time></trkpt><trkpt lat="59.4390078820" lon="30.2560916729"><ele>72.90</ele><time>2026-08-29T21:22:45Z</time></trkpt><trkpt lat="59.4388976600" lon="30.2560231928"><ele>73.74</ele><time>2026-08-29T21:22:59Z</time></trkpt><trkpt lat="59.4387474563" lon="30.2559558861"><ele>74.04</ele><time>2026-08-29T21:23:13Z</time></trkpt><trkpt lat="59.4385980908" lon="30.2558551356"><ele>73.96</ele><time>2026-08-29T21:23:26Z</time></trkpt><trkpt lat="59.4384876173" lon="30.2559097856"><ele>73.77</ele><time>2026-08-29T21:23:39Z</time></trkpt><trkpt lat="59.4384452887" lon="30.2558539622"><ele>73.93</ele><time>2026-08-29T21:23:44Z</time></trkpt><trkpt lat="59.4382735435" lon="30.2557390463"><ele>73.77</ele><time>2026-08-29T21:24:01Z</time></trkpt><trkpt lat="59.4381788280" lon="30.2558044251"><ele>74.07</ele><time>2026-08-29T21:24:15Z</time></trkpt><trkpt lat="59.4381722901" lon="30.2556523774"><ele>73.97</ele><time>2026-08-29T21:24:35Z</time></trkpt><trkpt lat="59.4381754752" lon="30.2556303330"><ele>74.10</ele><time>2026-08-29T21:24:36Z</time></trkpt><trkpt lat="59.4380780775" lon="30.2554852422"><ele>74.08</ele><time>2026-08-29T21:24:52Z</time></trkpt><trkpt lat="59.4380516745" lon="30.2554541454"><ele>73.97</ele><time>2026-08-29T21:24:56Z</time></trkpt><trkpt lat="59.4378973637" lon="30.2554305084"><ele>74.25</ele><time>2026-08-29T21:25:10Z</time></trkpt><trkpt lat="59.4377414603" lon="30.2553054504"><ele>74.27</ele><time>2026-08-29T21:25:26Z</time></trkpt><trkpt lat="59.4376625028" lon="30.2553410735"><ele>74.45</ele><time>2026-08-29T21:25:39Z</time></trkpt><trkpt lat="59.4376827870" lon="30.2553717513"><ele>74.69</ele><time>2026-08-29T21:26:04Z</time></trkpt><trkpt lat="59.4376676995" lon="30.2553069592"><ele>74.37</ele><time>2026-08-29T21:26:32Z</time></trkpt><trkpt lat="59.4376324955" lon="30.2552626189"><ele>74.69</ele><time>2026-08-29T21:26:48Z</time></trkpt><trkpt lat="59.4374732394" lon="30.2551886905"><ele>73.80</ele><time>2026-08-29T21:27:03Z</time></trkpt><trkpt lat="59.4373444933" lon="30.2551753633"><ele>72.25</ele><time>2026-08-29T21:27:18Z</time></trkpt><trkpt lat="59.4373243768" lon="30.2551777940"><ele>74.71</ele><time>2026-08-29T21:27:33Z</time></trkpt><trkpt lat="59.4372286554" lon="30.2550970763"><ele>74.17</ele><time>2026-08-29T21:27:47Z</time></trkpt><trkpt lat="59.4371425733" lon="30.2550582681"><ele>74.06</ele><time>2026-08-29T21:27:57Z</time></trkpt><trkpt lat="59.4370096363" lon="30.2550293505"><ele>74.10</ele><time>2026-08-29T21:28:11Z</time></trkpt><trkpt lat="59.4368945528" lon="30.2550806478"><ele>72.80</ele><time>2026-08-29T21:28:27Z</time></trkpt><trkpt lat="59.4368846621" lon="30.2550846711"><ele>74.20</ele><time>2026-08-29T21:28:46Z</time></trkpt><trkpt lat="59.4368555769" lon="30.2550539933"><ele>74.60</ele><time>2026-08-29T21:29:11Z</time></trkpt><trkpt lat="59.4368549902" lon="30.2550782170"><ele>74.05</ele><time>2026-08-29T21:29:55Z</time></trkpt><trkpt lat="59.4368006755" lon="30.2550761215"><ele>75.40</ele><time>2026-08-29T21:30:13Z</time></trkpt><trkpt lat="59.4368047826" lon="30.2550095692"><ele>73.96</ele><time>2026-08-29T21:30:44Z</time></trkpt><trkpt lat="59.4368071295" lon="30.2549966611"><ele>73.96</ele><time>2026-08-29T21:30:45Z</time></trkpt><trkpt lat="59.4368146732" lon="30.2549058851"><ele>75.41</ele><time>2026-08-29T21:30:51Z</time></trkpt><trkpt lat="59.4368043635" lon="30.2546275221"><ele>75.59</ele><time>2026-08-29T21:31:05Z</time></trkpt><trkpt lat="59.4367752783" lon="30.2544659190"><ele>75.50</ele><time>2026-08-29T21:31:16Z</time></trkpt><trkpt lat="59.4367673993" lon="30.2541429643"><ele>75.11</ele><time>2026-08-29T21:31:31Z</time></trkpt><trkpt lat="59.4367859233" lon="30.2538444847"><ele>74.91</ele><time>2026-08-29T21:31:47Z</time></trkpt><trkpt lat="59.4367398228" lon="30.2535553928"><ele>75.28</ele><time>2026-08-29T21:32:02Z</time></trkpt><trkpt lat="59.4367468636" lon="30.2532476932"><ele>75.58</ele><time>2026-08-29T21:32:18Z</time></trkpt><trkpt lat="59.4367287587" lon="30.2529607806"><ele>75.74</ele><time>2026-08-29T21:32:32Z</time></trkpt><trkpt lat="59.4367033616" lon="30.2527357265"><ele>75.66</ele><time>2026-08-29T21:32:46Z</time></trkpt><trkpt lat="59.4367011823" lon="30.2525190543"><ele>75.71</ele><time>2026-08-29T21:32:56Z</time></trkpt><trkpt lat="59.4366861787" lon="30.2522918209"><ele>75.67</ele><time>2026-08-29T21:33:13Z</time></trkpt><trkpt lat="59.4366582669" lon="30.2521256078"><ele>75.72</ele><time>2026-08-29T21:33:28Z</time></trkpt><trkpt lat="59.4366705883" lon="30.2519045770"><ele>76.40</ele><time>2026-08-29T21:33:42Z</time></trkpt><trkpt lat="59.4366756175" lon="30.2517398726"><ele>76.06</ele><time>2026-08-29T21:34:25Z</time></trkpt><trkpt lat="59.4366588537" lon="30.2518205903"><ele>76.08</ele><time>2026-08-29T21:34:54Z</time></trkpt><trkpt lat="59.4366637990" lon="30.2516945265"><ele>76.33</ele><time>2026-08-29T21:35:46Z</time></trkpt><trkpt lat="59.4366783835" lon="30.2514832187"><ele>76.64</ele><time>2026-08-29T21:36:02Z</time></trkpt><trkpt lat="59.4366885256" lon="30.2512422390"><ele>76.84</ele><time>2026-08-29T21:36:16Z</time></trkpt><trkpt lat="59.4366555847" lon="30.2509761974"><ele>76.71</ele><time>2026-08-29T21:36:30Z</time></trkpt><trkpt lat="59.4366507232" lon="30.2506945655"><ele>76.80</ele><time>2026-08-29T21:36:44Z</time></trkpt><trkpt lat="59.4366269186" lon="30.2504675835"><ele>76.76</ele><time>2026-08-29T21:36:59Z</time></trkpt><trkpt lat="59.4366344623" lon="30.2502006199"><ele>77.08</ele><time>2026-08-29T21:37:14Z</time></trkpt><trkpt lat="59.4366296846" lon="30.2500541881"><ele>77.24</ele><time>2026-08-29T21:37:21Z</time></trkpt><trkpt lat="59.4366301876" lon="30.2498191595"><ele>77.36</ele><time>2026-08-29T21:37:37Z</time></trkpt><trkpt lat="59.4366346300" lon="30.2496998850"><ele>77.52</ele><time>2026-08-29T21:37:43Z</time></trkpt><trkpt lat="59.4365883619" lon="30.2493864857"><ele>77.36</ele><time>2026-08-29T21:38:00Z</time></trkpt><trkpt lat="59.4365895353" lon="30.2490690630"><ele>77.57</ele><time>2026-08-29T21:38:15Z</time></trkpt><trkpt lat="59.4365810696" lon="30.2488656342"><ele>77.34</ele><time>2026-08-29T21:38:30Z</time></trkpt><trkpt lat="59.4365978334" lon="30.2487408277"><ele>77.74</ele><time>2026-08-29T21:38:48Z</time></trkpt><trkpt lat="59.4365849253" lon="30.2486419212"><ele>78.05</ele><time>2026-08-29T21:39:50Z</time></trkpt><trkpt lat="59.4365647249" lon="30.2484495565"><ele>78.08</ele><time>2026-08-29T21:40:04Z</time></trkpt><trkpt lat="59.4365498889" lon="30.2481068205"><ele>78.16</ele><time>2026-08-29T21:40:20Z</time></trkpt><trkpt lat="59.4365470391" lon="30.2480857819"><ele>78.04</ele><time>2026-08-29T21:40:21Z</time></trkpt><trkpt lat="59.4365135953" lon="30.2477910742"><ele>78.14</ele><time>2026-08-29T21:40:36Z</time></trkpt><trkpt lat="59.4364948198" lon="30.2476609033"><ele>78.20</ele><time>2026-08-29T21:40:42Z</time></trkpt><trkpt lat="59.4365065545" lon="30.2473330870"><ele>78.42</ele><time>2026-08-29T21:40:59Z</time></trkpt><trkpt lat="59.4365233183" lon="30.2470077854"><ele>78.33</ele><time>2026-08-29T21:41:14Z</time></trkpt><trkpt lat="59.4365061354" lon="30.2467387263"><ele>78.23</ele><time>2026-08-29T21:41:30Z</time></trkpt><trkpt lat="59.4364688359" lon="30.2464007679"><ele>78.33</ele><time>2026-08-29T21:41:45Z</time></trkpt><trkpt lat="59.4364608731" lon="30.2461435273"><ele>78.55</ele><time>2026-08-29T21:42:00Z</time></trkpt><trkpt lat="59.4364637230" lon="30.2457995340"><ele>78.55</ele><time>2026-08-29T21:42:16Z</time></trkpt><trkpt lat="59.4364432711" lon="30.2456541918"><ele>78.37</ele><time>2026-08-29T21:42:33Z</time></trkpt><trkpt lat="59.4364457857" lon="30.2456725482"><ele>77.62</ele><time>2026-08-29T21:43:15Z</time></trkpt><trkpt lat="59.4364198856" lon="30.2455998771"><ele>78.49</ele><time>2026-08-29T21:43:36Z</time></trkpt><trkpt lat="59.4364389963" lon="30.2453981247"><ele>79.03</ele><time>2026-08-29T21:43:57Z</time></trkpt><trkpt lat="59.4364130963" lon="30.2451395430"><ele>79.08</ele><time>2026-08-29T21:44:11Z</time></trkpt><trkpt lat="59.4364075642" lon="30.2450896706"><ele>79.07</ele><time>2026-08-29T21:44:25Z</time></trkpt><trkpt lat="59.4364081509" lon="30.2449688874"><ele>79.04</ele><time>2026-08-29T21:44:31Z</time></trkpt><trkpt lat="59.4363957457" lon="30.2446953859"><ele>79.01</ele><time>2026-08-29T21:44:46Z</time></trkpt><trkpt lat="59.4363971706" lon="30.2443914581"><ele>79.02</ele><time>2026-08-29T21:44:59Z</time></trkpt><trkpt lat="59.4364148565" lon="30.2441297751"><ele>79.14</ele><time>2026-08-29T21:45:13Z</time></trkpt><trkpt lat="59.4363986794" lon="30.2439392544"><ele>79.13</ele><time>2026-08-29T21:45:25Z</time></trkpt><trkpt lat="59.4363848493" lon="30.2436702792"><ele>79.25</ele><time>2026-08-29T21:45:37Z</time></trkpt><trkpt lat="59.4363818318" lon="30.2433318179"><ele>79.37</ele><time>2026-08-29T21:45:53Z</time></trkpt><trkpt lat="59.4363679178" lon="30.2431166545"><ele>79.17</ele><time>2026-08-29T21:46:04Z</time></trkpt><trkpt lat="59.4363537524" lon="30.2429194283"><ele>79.44</ele><time>2026-08-29T21:46:20Z</time></trkpt><trkpt lat="59.4363269303" lon="30.2429128904"><ele>79.30</ele><time>2026-08-29T21:47:15Z</time></trkpt><trkpt lat="59.4363638945" lon="30.2426736709"><ele>79.42</ele><time>2026-08-29T21:47:28Z</time></trkpt><trkpt lat="59.4363557640" lon="30.2423996665"><ele>79.94</ele><time>2026-08-29T21:47:42Z</time></trkpt><trkpt lat="59.4363558479" lon="30.2422681544"><ele>79.56</ele><time>2026-08-29T21:47:48Z</time></trkpt><trkpt lat="59.4363481365" lon="30.2421964891"><ele>79.63</ele><time>2026-08-29T21:47:51Z</time></trkpt><trkpt lat="59.4363260921" lon="30.2418471314"><ele>79.89</ele><time>2026-08-29T21:48:06Z</time></trkpt><trkpt lat="59.4363261759" lon="30.2417405974"><ele>79.83</ele><time>2026-08-29T21:48:10Z</time></trkpt><trkpt lat="59.4363203924" lon="30.2414581273"><ele>79.93</ele><time>2026-08-29T21:48:26Z</time></trkpt><trkpt lat="59.4362750463" lon="30.2411480807"><ele>80.00</ele><time>2026-08-29T21:48:40Z</time></trkpt><trkpt lat="59.4362641498" lon="30.2408813685"><ele>80.05</ele><time>2026-08-29T21:48:55Z</time></trkpt><trkpt lat="59.4362622220" lon="30.2405629400"><ele>80.25</ele><time>2026-08-29T21:49:10Z</time></trkpt><trkpt lat="59.4362608809" lon="30.2403010894"><ele>80.31</ele><time>2026-08-29T21:49:24Z</time></trkpt><trkpt lat="59.4362678379" lon="30.2401860896"><ele>80.49</ele><time>2026-08-29T21:49:30Z</time></trkpt><trkpt lat="59.4362600427" lon="30.2399919648"><ele>80.99</ele><time>2026-08-29T21:49:39Z</time></trkpt><trkpt lat="59.4362332206" lon="30.2399090677"><ele>80.55</ele><time>2026-08-29T21:49:56Z</time></trkpt><trkpt lat="59.4362269342" lon="30.2398849279"><ele>80.94</ele><time>2026-08-29T21:50:43Z</time></trkpt><trkpt lat="59.4363004435" lon="30.2399717644"><ele>80.42</ele><time>2026-08-29T21:51:00Z</time></trkpt><trkpt lat="59.4362890441" lon="30.2399830800"><ele>80.55</ele><time>2026-08-29T21:51:05Z</time></trkpt><trkpt lat="59.4362186361" lon="30.2398473769"><ele>81.06</ele><time>2026-08-29T21:51:17Z</time></trkpt><trkpt lat="59.4362170435" lon="30.2398341335"><ele>80.99</ele><time>2026-08-29T21:51:18Z</time></trkpt><trkpt lat="59.4362163730" lon="30.2395025454"><ele>81.22</ele><time>2026-08-29T21:51:35Z</time></trkpt><trkpt lat="59.4361601304" lon="30.2392778266"><ele>81.34</ele><time>2026-08-29T21:51:48Z</time></trkpt><trkpt lat="59.4361534249" lon="30.2389869746"><ele>81.35</ele><time>2026-08-29T21:52:01Z</time></trkpt><trkpt lat="59.4361566938" lon="30.2387801930"><ele>81.29</ele><time>2026-08-29T21:52:12Z</time></trkpt><trkpt lat="59.4361600466" lon="30.2384935319"><ele>81.52</ele><time>2026-08-29T21:52:30Z</time></trkpt><trkpt lat="59.4361717813" lon="30.2382996585"><ele>81.58</ele><time>2026-08-29T21:52:43Z</time></trkpt><trkpt lat="59.4361734577" lon="30.2380734310"><ele>81.66</ele><time>2026-08-29T21:52:56Z</time></trkpt><trkpt lat="59.4361821748" lon="30.2378545795"><ele>81.32</ele><time>2026-08-29T21:53:11Z</time></trkpt><trkpt lat="59.4361461326" lon="30.2378823236"><ele>81.37</ele><time>2026-08-29T21:53:42Z</time></trkpt><trkpt lat="59.4361196458" lon="30.2379152644"><ele>80.28</ele><time>2026-08-29T21:54:20Z</time></trkpt><trkpt lat="59.4361432828" lon="30.2379016858"><ele>80.57</ele><time>2026-08-29T21:55:03Z</time></trkpt><trkpt lat="59.4361602981" lon="30.2378853410"><ele>80.76</ele><time>2026-08-29T21:55:51Z</time></trkpt><trkpt lat="59.4361660816" lon="30.2378823236"><ele>81.84</ele><time>2026-08-29T21:56:44Z</time></trkpt><trkpt lat="59.4361757208" lon="30.2378644701"><ele>82.01</ele><time>2026-08-29T21:57:00Z</time></trkpt><trkpt lat="59.4361252617" lon="30.2379177790"><ele>81.18</ele><time>2026-08-29T21:57:34Z</time></trkpt><trkpt lat="59.4361520000" lon="30.2378993388"><ele>81.26</ele><time>2026-08-29T21:58:12Z</time></trkpt><trkpt lat="59.4361411873" lon="30.2378529869"><ele>82.17</ele><time>2026-08-29T21:58:57Z</time></trkpt><trkpt lat="59.4361377507" lon="30.2377271745"><ele>82.21</ele><time>2026-08-29T21:59:20Z</time></trkpt><trkpt lat="59.4361159578" lon="30.2374352328"><ele>82.53</ele><time>2026-08-29T21:59:35Z</time></trkpt><trkpt lat="59.4361172989" lon="30.2373414394"><ele>82.60</ele><time>2026-08-29T21:59:39Z</time></trkpt><trkpt lat="59.4361076597" lon="30.2371185645"><ele>82.53</ele><time>2026-08-29T21:59:51Z</time></trkpt><trkpt lat="59.4360992778" lon="30.2368148882"><ele>82.69</ele><time>2026-08-29T22:00:06Z</time></trkpt><trkpt lat="59.4360948354" lon="30.2365090325"><ele>82.38</ele><time>2026-08-29T22:00:20Z</time></trkpt><trkpt lat="59.4360525906" lon="30.2363795321"><ele>82.43</ele><time>2026-08-29T22:00:35Z</time></trkpt><trkpt lat="59.4360685162" lon="30.2363386285"><ele>82.33</ele><time>2026-08-29T22:01:25Z</time></trkpt><trkpt lat="59.4360747188" lon="30.2360420767"><ele>82.15</ele><time>2026-08-29T22:01:44Z</time></trkpt><trkpt lat="59.4360685162" lon="30.2358055394"><ele>82.43</ele><time>2026-08-29T22:02:00Z</time></trkpt><trkpt lat="59.4360670913" lon="30.2357893623"><ele>82.38</ele><time>2026-08-29T22:02:01Z</time></trkpt><trkpt lat="59.4360574521" lon="30.2355105802"><ele>82.31</ele><time>2026-08-29T22:02:14Z</time></trkpt><trkpt lat="59.4360405207" lon="30.2352734562"><ele>82.43</ele><time>2026-08-29T22:02:27Z</time></trkpt><trkpt lat="59.4360136986" lon="30.2350402717"><ele>82.65</ele><time>2026-08-29T22:02:38Z</time></trkpt><trkpt lat="59.4360001199" lon="30.2349466458"><ele>82.53</ele><time>2026-08-29T22:02:41Z</time></trkpt><trkpt lat="59.4360003714" lon="30.2349049877"><ele>82.44</ele><time>2026-08-29T22:02:43Z</time></trkpt><trkpt lat="59.4360116869" lon="30.2347281296"><ele>82.40</ele><time>2026-08-29T22:02:53Z</time></trkpt><trkpt lat="59.4359965995" lon="30.2344465815"><ele>82.52</ele><time>2026-08-29T22:03:06Z</time></trkpt><trkpt lat="59.4359896425" lon="30.2343481779"><ele>82.79</ele><time>2026-08-29T22:03:13Z</time></trkpt><trkpt lat="59.4359882176" lon="30.2341418993"><ele>83.02</ele><time>2026-08-29T22:03:25Z</time></trkpt><trkpt lat="59.4359585457" lon="30.2338390611"><ele>82.80</ele><time>2026-08-29T22:03:39Z</time></trkpt><trkpt lat="59.4359589648" lon="30.2336677350"><ele>82.83</ele><time>2026-08-29T22:03:49Z</time></trkpt><trkpt lat="59.4359259401" lon="30.2334168646"><ele>83.68</ele><time>2026-08-29T22:04:04Z</time></trkpt><trkpt lat="59.4359388482" lon="30.2334111650"><ele>82.91</ele><time>2026-08-29T22:04:26Z</time></trkpt><trkpt lat="59.4359290414" lon="30.2333547547"><ele>82.82</ele><time>2026-08-29T22:05:15Z</time></trkpt><trkpt lat="59.4359127805" lon="30.2332563512"><ele>82.62</ele><time>2026-08-29T22:05:20Z</time></trkpt><trkpt lat="59.4359136187" lon="30.2332136873"><ele>82.52</ele><time>2026-08-29T22:05:22Z</time></trkpt><trkpt lat="59.4358906522" lon="30.2329735458"><ele>82.95</ele><time>2026-08-29T22:05:37Z</time></trkpt><trkpt lat="59.4358941726" lon="30.2327350806"><ele>83.09</ele><time>2026-08-29T22:05:49Z</time></trkpt><trkpt lat="59.4358893111" lon="30.2324117068"><ele>82.99</ele><time>2026-08-29T22:06:05Z</time></trkpt><trkpt lat="59.4358657580" lon="30.2321651950"><ele>82.70</ele><time>2026-08-29T22:06:18Z</time></trkpt><trkpt lat="59.4358653389" lon="30.2321527060"><ele>82.84</ele><time>2026-08-29T22:06:19Z</time></trkpt><trkpt lat="59.4358415343" lon="30.2318293322"><ele>84.15</ele><time>2026-08-29T22:06:35Z</time></trkpt><trkpt lat="59.4358386844" lon="30.2316992451"><ele>82.60</ele><time>2026-08-29T22:06:46Z</time></trkpt><trkpt lat="59.4358441327" lon="30.2316853311"><ele>82.26</ele><time>2026-08-29T22:07:11Z</time></trkpt><trkpt lat="59.4358284585" lon="30.2317388915"><ele>82.28</ele><time>2026-08-29T22:07:28Z</time></trkpt><trkpt lat="59.4358547777" lon="30.2317122370"><ele>82.38</ele><time>2026-08-29T22:08:18Z</time></trkpt><trkpt lat="59.4358519278" lon="30.2316987421"><ele>82.21</ele><time>2026-08-29T22:08:22Z</time></trkpt><trkpt lat="59.4358634949" lon="30.2316183597"><ele>81.38</ele><time>2026-08-29T22:08:52Z</time></trkpt><trkpt lat="59.4358458929" lon="30.2316784579"><ele>80.77</ele><time>2026-08-29T22:10:36Z</time></trkpt><trkpt lat="59.4358400255" lon="30.2316567488"><ele>80.68</ele><time>2026-08-29T22:12:02Z</time></trkpt><trkpt lat="59.4358435459" lon="30.2315990813"><ele>80.42</ele><time>2026-08-29T22:13:38Z</time></trkpt><trkpt lat="59.4358785823" lon="30.2315962315"><ele>80.30</ele><time>2026-08-29T22:15:20Z</time></trkpt><trkpt lat="59.4358663447" lon="30.2316134982"><ele>80.89</ele><time>2026-08-29T22:16:36Z</time></trkpt><trkpt lat="59.4358665962" lon="30.2316091396"><ele>81.06</ele><time>2026-08-29T22:17:40Z</time></trkpt><trkpt lat="59.4358741399" lon="30.2316628676"><ele>80.99</ele><time>2026-08-29T22:19:26Z</time></trkpt><trkpt lat="59.4358729664" lon="30.2316699922"><ele>82.10</ele><time>2026-08-29T22:20:58Z</time></trkpt><trkpt lat="59.4358229265" lon="30.2316329442"><ele>82.26</ele><time>2026-08-29T22:21:45Z</time></trkpt><trkpt lat="59.4358869642" lon="30.2315997519"><ele>82.20</ele><time>2026-08-29T22:22:13Z</time></trkpt><trkpt lat="59.4360301271" lon="30.2315987460"><ele>82.61</ele><time>2026-08-29T22:22:28Z</time></trkpt><trkpt lat="59.4360990264" lon="30.2315819822"><ele>82.03</ele><time>2026-08-29T22:22:42Z</time></trkpt><trkpt lat="59.4361167960" lon="30.2315595187"><ele>81.89</ele><time>2026-08-29T22:22:44Z</time></trkpt><trkpt lat="59.4361963402" lon="30.2315262426"><ele>82.17</ele><time>2026-08-29T22:23:00Z</time></trkpt><trkpt lat="59.4362432789" lon="30.2315241471"><ele>82.32</ele><time>2026-08-29T22:23:06Z</time></trkpt><trkpt lat="59.4363318756" lon="30.2314968221"><ele>82.19</ele><time>2026-08-29T22:23:19Z</time></trkpt><trkpt lat="59.4364225678" lon="30.2314515598"><ele>81.55</ele><time>2026-08-29T22:23:35Z</time></trkpt><trkpt lat="59.4365188759" lon="30.2314758673"><ele>81.82</ele><time>2026-08-29T22:23:52Z</time></trkpt><trkpt lat="59.4365995098" lon="30.2314077225"><ele>81.22</ele><time>2026-08-29T22:24:06Z</time></trkpt><trkpt lat="59.4366653915" lon="30.2314021904"><ele>81.47</ele><time>2026-08-29T22:24:20Z</time></trkpt><trkpt lat="59.4367111567" lon="30.2314906195"><ele>82.47</ele><time>2026-08-29T22:24:38Z</time></trkpt><trkpt lat="59.4367322791" lon="30.2314716764"><ele>82.49</ele><time>2026-08-29T22:24:58Z</time></trkpt><trkpt lat="59.4367919583" lon="30.2314371429"><ele>81.03</ele><time>2026-08-29T22:25:16Z</time></trkpt><trkpt lat="59.4368972350" lon="30.2313605323"><ele>81.10</ele><time>2026-08-29T22:25:34Z</time></trkpt><trkpt lat="59.4370069541" lon="30.2313693333"><ele>81.79</ele><time>2026-08-29T22:25:50Z</time></trkpt><trkpt lat="59.4370715786" lon="30.2313944791"><ele>81.60</ele><time>2026-08-29T22:26:07Z</time></trkpt><trkpt lat="59.4371141586" lon="30.2313999273"><ele>81.69</ele><time>2026-08-29T22:26:19Z</time></trkpt><trkpt lat="59.4371926971" lon="30.2313850075"><ele>81.33</ele><time>2026-08-29T22:26:34Z</time></trkpt><trkpt lat="59.4372904301" lon="30.2313705906"><ele>80.36</ele><time>2026-08-29T22:26:51Z</time></trkpt><trkpt lat="59.4373699743" lon="30.2312282659"><ele>80.71</ele><time>2026-08-29T22:27:08Z</time></trkpt><trkpt lat="59.4374395441" lon="30.2312697563"><ele>80.44</ele><time>2026-08-29T22:27:25Z</time></trkpt><trkpt lat="59.4375600759" lon="30.2313205507"><ele>80.97</ele><time>2026-08-29T22:27:48Z</time></trkpt><trkpt lat="59.4376398716" lon="30.2313262504"><ele>80.94</ele><time>2026-08-29T22:28:09Z</time></trkpt><trkpt lat="59.4375877362" lon="30.2313119173"><ele>81.00</ele><time>2026-08-29T22:28:32Z</time></trkpt><trkpt lat="59.4376182463" lon="30.2313426789"><ele>81.08</ele><time>2026-08-29T22:29:03Z</time></trkpt><trkpt lat="59.4377041608" lon="30.2312519867"><ele>80.98</ele><time>2026-08-29T22:29:42Z</time></trkpt><trkpt lat="59.4377188291" lon="30.2313026972"><ele>80.43</ele><time>2026-08-29T22:29:59Z</time></trkpt><trkpt lat="59.4377314858" lon="30.2312596142"><ele>80.13</ele><time>2026-08-29T22:30:22Z</time></trkpt><trkpt lat="59.4377838727" lon="30.2312567644"><ele>80.79</ele><time>2026-08-29T22:30:31Z</time></trkpt><trkpt lat="59.4378842879" lon="30.2312541660"><ele>80.69</ele><time>2026-08-29T22:30:47Z</time></trkpt><trkpt lat="59.4379397761" lon="30.2312697563"><ele>80.75</ele><time>2026-08-29T22:31:05Z</time></trkpt><trkpt lat="59.4380498305" lon="30.2312187944"><ele>81.73</ele><time>2026-08-29T22:31:20Z</time></trkpt><trkpt lat="59.4380834419" lon="30.2312546689"><ele>80.31</ele><time>2026-08-29T22:31:34Z</time></trkpt><trkpt lat="59.4382197317" lon="30.2312241588"><ele>80.10</ele><time>2026-08-29T22:31:50Z</time></trkpt><trkpt lat="59.4382892177" lon="30.2312104963"><ele>79.81</ele><time>2026-08-29T22:32:09Z</time></trkpt><trkpt lat="59.4384030439" lon="30.2312080655"><ele>80.03</ele><time>2026-08-29T22:32:29Z</time></trkpt><trkpt lat="59.4384992681" lon="30.2312240750"><ele>79.99</ele><time>2026-08-29T22:32:46Z</time></trkpt><trkpt lat="59.4385690894" lon="30.2311981749"><ele>79.88</ele><time>2026-08-29T22:33:05Z</time></trkpt><trkpt lat="59.4386268407" lon="30.2311934810"><ele>79.33</ele><time>2026-08-29T22:33:22Z</time></trkpt><trkpt lat="59.4387142640" lon="30.2311948221"><ele>79.69</ele><time>2026-08-29T22:33:47Z</time></trkpt><trkpt lat="59.4387397449" lon="30.2311395854"><ele>79.46</ele><time>2026-08-29T22:34:08Z</time></trkpt><trkpt lat="59.4388110749" lon="30.2310894616"><ele>79.05</ele><time>2026-08-29T22:34:25Z</time></trkpt><trkpt lat="59.4388805609" lon="30.2311320417"><ele>79.62</ele><time>2026-08-29T22:34:47Z</time></trkpt><trkpt lat="59.4389518909" lon="30.2311308682"><ele>79.08</ele><time>2026-08-29T22:35:09Z</time></trkpt><trkpt lat="59.4390253164" lon="30.2311500628"><ele>79.12</ele><time>2026-08-29T22:35:25Z</time></trkpt><trkpt lat="59.4391327724" lon="30.2311366517"><ele>79.59</ele><time>2026-08-29T22:35:42Z</time></trkpt><trkpt lat="59.4391470216" lon="30.2311443631"><ele>77.99</ele><time>2026-08-29T22:36:01Z</time></trkpt><trkpt lat="59.4391260669" lon="30.2311240789"><ele>78.49</ele><time>2026-08-29T22:36:41Z</time></trkpt><trkpt lat="59.4391667191" lon="30.2310890425"><ele>78.63</ele><time>2026-08-29T22:37:22Z</time></trkpt><trkpt lat="59.4392311759" lon="30.2310310397"><ele>78.36</ele><time>2026-08-29T22:37:37Z</time></trkpt><trkpt lat="59.4393513724" lon="30.2310179640"><ele>78.17</ele><time>2026-08-29T22:37:57Z</time></trkpt><trkpt lat="59.4394530449" lon="30.2310249209"><ele>78.18</ele><time>2026-08-29T22:38:14Z</time></trkpt><trkpt lat="59.4395197649" lon="30.2311214805"><ele>78.79</ele><time>2026-08-29T22:38:33Z</time></trkpt><trkpt lat="59.4395738281" lon="30.2310550958"><ele>78.39</ele><time>2026-08-29T22:38:46Z</time></trkpt><trkpt lat="59.4396476727" lon="30.2310026251"><ele>78.39</ele><time>2026-08-29T22:39:02Z</time></trkpt><trkpt lat="59.4396775961" lon="30.2310615499"><ele>78.60</ele><time>2026-08-29T22:39:17Z</time></trkpt><trkpt lat="59.4397311565" lon="30.2309592906"><ele>78.16</ele><time>2026-08-29T22:39:34Z</time></trkpt><trkpt lat="59.4397878181" lon="30.2309307922"><ele>78.18</ele><time>2026-08-29T22:39:50Z</time></trkpt><trkpt lat="59.4398607407" lon="30.2309934888"><ele>78.28</ele><time>2026-08-29T22:40:09Z</time></trkpt><trkpt lat="59.4398672786" lon="30.2310321294"><ele>76.79</ele><time>2026-08-29T22:40:15Z</time></trkpt><trkpt lat="59.4398541190" lon="30.2309660800"><ele>78.13</ele><time>2026-08-29T22:40:25Z</time></trkpt><trkpt lat="59.4399131276" lon="30.2309762221"><ele>77.82</ele><time>2026-08-29T22:40:40Z</time></trkpt><trkpt lat="59.4399780035" lon="30.2309583686"><ele>77.54</ele><time>2026-08-29T22:40:58Z</time></trkpt><trkpt lat="59.4400681928" lon="30.2310047206"><ele>78.08</ele><time>2026-08-29T22:41:14Z</time></trkpt><trkpt lat="59.4401465636" lon="30.2310001943"><ele>78.09</ele><time>2026-08-29T22:41:28Z</time></trkpt><trkpt lat="59.4401557837" lon="30.2308718674"><ele>77.95</ele><time>2026-08-29T22:41:39Z</time></trkpt><trkpt lat="59.4402041472" lon="30.2309606317"><ele>78.55</ele><time>2026-08-29T22:41:55Z</time></trkpt><trkpt lat="59.4402267784" lon="30.2309470531"><ele>78.48</ele><time>2026-08-29T22:42:01Z</time></trkpt><trkpt lat="59.4403592963" lon="30.2309321333"><ele>78.39</ele><time>2026-08-29T22:42:18Z</time></trkpt><trkpt lat="59.4404227473" lon="30.2309328876"><ele>78.29</ele><time>2026-08-29T22:42:39Z</time></trkpt><trkpt lat="59.4404830970" lon="30.2308581211"><ele>78.06</ele><time>2026-08-29T22:42:55Z</time></trkpt><trkpt lat="59.4405096676" lon="30.2307693567"><ele>77.82</ele><time>2026-08-29T22:43:16Z</time></trkpt><trkpt lat="59.4405968394" lon="30.2307938319"><ele>78.50</ele><time>2026-08-29T22:43:34Z</time></trkpt><trkpt lat="59.4406091608" lon="30.2307982743"><ele>78.77</ele><time>2026-08-29T22:43:58Z</time></trkpt><trkpt lat="59.4406045508" lon="30.2308226656"><ele>77.92</ele><time>2026-08-29T22:44:25Z</time></trkpt><trkpt lat="59.4406188838" lon="30.2307721227"><ele>77.82</ele><time>2026-08-29T22:45:04Z</time></trkpt><trkpt lat="59.4407154433" lon="30.2307922393"><ele>77.74</ele><time>2026-08-29T22:45:23Z</time></trkpt><trkpt lat="59.4407707639" lon="30.2307729609"><ele>77.77</ele><time>2026-08-29T22:45:38Z</time></trkpt><trkpt lat="59.4408458658" lon="30.2308078296"><ele>77.60</ele><time>2026-08-29T22:45:57Z</time></trkpt><trkpt lat="59.4409482926" lon="30.2308053989"><ele>77.98</ele><time>2026-08-29T22:46:11Z</time></trkpt><trkpt lat="59.4409912918" lon="30.2307756431"><ele>77.61</ele><time>2026-08-29T22:46:27Z</time></trkpt><trkpt lat="59.4410376437" lon="30.2308286168"><ele>77.89</ele><time>2026-08-29T22:46:34Z</time></trkpt><trkpt lat="59.4410810620" lon="30.2308398485"><ele>77.90</ele><time>2026-08-29T22:46:42Z</time></trkpt><trkpt lat="59.4410886895" lon="30.2308497392"><ele>77.86</ele><time>2026-08-29T22:46:44Z</time></trkpt><trkpt lat="59.4411505479" lon="30.2308586240"><ele>77.93</ele><time>2026-08-29T22:46:57Z</time></trkpt><trkpt lat="59.4411887694" lon="30.2307872940"><ele>77.43</ele><time>2026-08-29T22:47:17Z</time></trkpt><trkpt lat="59.4412476104" lon="30.2307417803"><ele>77.84</ele><time>2026-08-29T22:47:33Z</time></trkpt><trkpt lat="59.4413265679" lon="30.2307617292"><ele>78.09</ele><time>2026-08-29T22:47:52Z</time></trkpt><trkpt lat="59.4413634483" lon="30.2307297941"><ele>78.10</ele><time>2026-08-29T22:48:11Z</time></trkpt><trkpt lat="59.4414334372" lon="30.2307149582"><ele>76.57</ele><time>2026-08-29T22:48:29Z</time></trkpt><trkpt lat="59.4415300805" lon="30.2307787444"><ele>77.83</ele><time>2026-08-29T22:48:59Z</time></trkpt><trkpt lat="59.4415557291" lon="30.2306780778"><ele>77.26</ele><time>2026-08-29T22:49:16Z</time></trkpt><trkpt lat="59.4416085351" lon="30.2306816820"><ele>77.77</ele><time>2026-08-29T22:49:39Z</time></trkpt><trkpt lat="59.4416788593" lon="30.2306228410"><ele>77.15</ele><time>2026-08-29T22:49:55Z</time></trkpt><trkpt lat="59.4416907616" lon="30.2306679357"><ele>77.73</ele><time>2026-08-29T22:50:14Z</time></trkpt><trkpt lat="59.4417776819" lon="30.2307010442"><ele>77.52</ele><time>2026-08-29T22:50:46Z</time></trkpt><trkpt lat="59.4418654405" lon="30.2306746412"><ele>77.10</ele><time>2026-08-29T22:51:05Z</time></trkpt><trkpt lat="59.4419402909" lon="30.2306940872"><ele>77.64</ele><time>2026-08-29T22:51:22Z</time></trkpt><trkpt lat="59.4420589786" lon="30.2306512557"><ele>77.65</ele><time>2026-08-29T22:51:40Z</time></trkpt><trkpt lat="59.4421667699" lon="30.2306442149"><ele>77.53</ele><time>2026-08-29T22:51:55Z</time></trkpt><trkpt lat="59.4421762414" lon="30.2306882199"><ele>77.66</ele><time>2026-08-29T22:52:15Z</time></trkpt><trkpt lat="59.4422203302" lon="30.2306942549"><ele>77.68</ele><time>2026-08-29T22:52:42Z</time></trkpt><trkpt lat="59.4423067477" lon="30.2307371702"><ele>77.71</ele><time>2026-08-29T22:52:59Z</time></trkpt><trkpt lat="59.4423490763" lon="30.2306542732"><ele>77.67</ele><time>2026-08-29T22:53:22Z</time></trkpt><trkpt lat="59.4423645828" lon="30.2305990364"><ele>77.51</ele><time>2026-08-29T22:53:40Z</time></trkpt><trkpt lat="59.4424994476" lon="30.2306050714"><ele>77.64</ele><time>2026-08-29T22:54:02Z</time></trkpt><trkpt lat="59.4425366633" lon="30.2305245213"><ele>76.96</ele><time>2026-08-29T22:54:21Z</time></trkpt><trkpt lat="59.4426175486" lon="30.2305256948"><ele>76.98</ele><time>2026-08-29T22:54:42Z</time></trkpt><trkpt lat="59.4426862802" lon="30.2304579690"><ele>76.71</ele><time>2026-08-29T22:55:02Z</time></trkpt><trkpt lat="59.4427293632" lon="30.2305824403"><ele>77.20</ele><time>2026-08-29T22:55:25Z</time></trkpt><trkpt lat="59.4427683391" lon="30.2306280378"><ele>77.52</ele><time>2026-08-29T22:55:36Z</time></trkpt><trkpt lat="59.4427395053" lon="30.2306228410"><ele>77.51</ele><time>2026-08-29T22:55:38Z</time></trkpt><trkpt lat="59.4427167904" lon="30.2306143753"><ele>77.51</ele><time>2026-08-29T22:55:39Z</time></trkpt><trkpt lat="59.4426346477" lon="30.2306262776"><ele>77.36</ele><time>2026-08-29T22:55:51Z</time></trkpt><trkpt lat="59.4425561931" lon="30.2306556981"><ele>77.31</ele><time>2026-08-29T22:56:04Z</time></trkpt><trkpt lat="59.4425775670" lon="30.2305681910"><ele>77.59</ele><time>2026-08-29T22:56:35Z</time></trkpt><trkpt lat="59.4425958395" lon="30.2305726334"><ele>77.38</ele><time>2026-08-29T22:57:37Z</time></trkpt><trkpt lat="59.4425533433" lon="30.2306296304"><ele>77.51</ele><time>2026-08-29T22:58:00Z</time></trkpt><trkpt lat="59.4425021298" lon="30.2306533512"><ele>76.77</ele><time>2026-08-29T22:58:43Z</time></trkpt><trkpt lat="59.4423162192" lon="30.2307024691"><ele>74.44</ele><time>2026-08-29T22:58:59Z</time></trkpt><trkpt lat="59.4422968570" lon="30.2307076659"><ele>76.77</ele><time>2026-08-29T22:59:05Z</time></trkpt><trkpt lat="59.4421135448" lon="30.2307641599"><ele>76.81</ele><time>2026-08-29T22:59:23Z</time></trkpt><trkpt lat="59.4418970402" lon="30.2307396848"><ele>76.93</ele><time>2026-08-29T22:59:43Z</time></trkpt><trkpt lat="59.4419017341" lon="30.2306686062"><ele>75.07</ele><time>2026-08-29T22:59:49Z</time></trkpt><trkpt lat="59.4418534543" lon="30.2305871341"><ele>75.59</ele><time>2026-08-29T23:00:07Z</time></trkpt><trkpt lat="59.4418835454" lon="30.2305983659"><ele>76.09</ele><time>2026-08-29T23:00:34Z</time></trkpt><trkpt lat="59.4418731518" lon="30.2306039818"><ele>77.25</ele><time>2026-08-29T23:01:13Z</time></trkpt><trkpt lat="59.4418383669" lon="30.2306154650"><ele>77.42</ele><time>2026-08-29T23:02:05Z</time></trkpt><trkpt lat="59.4418556336" lon="30.2306367550"><ele>77.29</ele><time>2026-08-29T23:02:55Z</time></trkpt><trkpt lat="59.4418474194" lon="30.2305121999"><ele>78.20</ele><time>2026-08-29T23:03:13Z</time></trkpt><trkpt lat="59.4418478385" lon="30.2302310709"><ele>77.59</ele><time>2026-08-29T23:03:34Z</time></trkpt><trkpt lat="59.4418527000" lon="30.2300608344"><ele>77.42</ele><time>2026-08-29T23:03:51Z</time></trkpt><trkpt lat="59.4418809470" lon="30.2298464254"><ele>77.40</ele><time>2026-08-29T23:04:07Z</time></trkpt><trkpt lat="59.4418713916" lon="30.2297571581"><ele>77.38</ele><time>2026-08-29T23:04:23Z</time></trkpt><trkpt lat="59.4418966211" lon="30.2296319325"><ele>77.27</ele><time>2026-08-29T23:04:39Z</time></trkpt><trkpt lat="59.4419019017" lon="30.2294528950"><ele>77.43</ele><time>2026-08-29T23:04:52Z</time></trkpt><trkpt lat="59.4419290591" lon="30.2293474507"><ele>79.29</ele><time>2026-08-29T23:05:07Z</time></trkpt><trkpt lat="59.4419298973" lon="30.2293453552"><ele>79.29</ele><time>2026-08-29T23:05:08Z</time></trkpt><trkpt lat="59.4419349264" lon="30.2293368895"><ele>79.27</ele><time>2026-08-29T23:05:11Z</time></trkpt><trkpt lat="59.4418933522" lon="30.2291268390"><ele>77.32</ele><time>2026-08-29T23:05:28Z</time></trkpt><trkpt lat="59.4418743253" lon="30.2289494779"><ele>77.76</ele><time>2026-08-29T23:05:47Z</time></trkpt><trkpt lat="59.4418767560" lon="30.2287233341"><ele>77.94</ele><time>2026-08-29T23:06:07Z</time></trkpt><trkpt lat="59.4418629259" lon="30.2286275290"><ele>78.13</ele><time>2026-08-29T23:06:26Z</time></trkpt><trkpt lat="59.4418180827" lon="30.2286059875"><ele>77.71</ele><time>2026-08-29T23:07:01Z</time></trkpt><trkpt lat="59.4418124668" lon="30.2285801712"><ele>77.37</ele><time>2026-08-29T23:07:41Z</time></trkpt><trkpt lat="59.4418043364" lon="30.2283989545"><ele>77.58</ele><time>2026-08-29T23:07:59Z</time></trkpt><trkpt lat="59.4418428931" lon="30.2282099426"><ele>77.30</ele><time>2026-08-29T23:08:18Z</time></trkpt><trkpt lat="59.4418468326" lon="30.2281140536"><ele>77.37</ele><time>2026-08-29T23:08:36Z</time></trkpt><trkpt lat="59.4418402947" lon="30.2279659454"><ele>77.39</ele><time>2026-08-29T23:08:48Z</time></trkpt><trkpt lat="59.4418364391" lon="30.2277793642"><ele>77.63</ele><time>2026-08-29T23:09:03Z</time></trkpt><trkpt lat="59.4417805318" lon="30.2275988180"><ele>77.67</ele><time>2026-08-29T23:09:19Z</time></trkpt><trkpt lat="59.4417943619" lon="30.2274049446"><ele>77.50</ele><time>2026-08-29T23:09:32Z</time></trkpt><trkpt lat="59.4417764246" lon="30.2272834908"><ele>77.68</ele><time>2026-08-29T23:09:48Z</time></trkpt><trkpt lat="59.4418290630" lon="30.2270720992"><ele>77.86</ele><time>2026-08-29T23:10:06Z</time></trkpt><trkpt lat="59.4418332539" lon="30.2269679960"><ele>76.21</ele><time>2026-08-29T23:10:18Z</time></trkpt><trkpt lat="59.4418381993" lon="30.2269162796"><ele>78.00</ele><time>2026-08-29T23:10:24Z</time></trkpt><trkpt lat="59.4418201782" lon="30.2267510723"><ele>77.73</ele><time>2026-08-29T23:10:45Z</time></trkpt><trkpt lat="59.4417825434" lon="30.2265856974"><ele>77.88</ele><time>2026-08-29T23:11:01Z</time></trkpt><trkpt lat="59.4417790230" lon="30.2263546921"><ele>77.96</ele><time>2026-08-29T23:11:17Z</time></trkpt><trkpt lat="59.4417661987" lon="30.2262844518"><ele>77.87</ele><time>2026-08-29T23:11:34Z</time></trkpt><trkpt lat="59.4417058490" lon="30.2262557857"><ele>78.04</ele><time>2026-08-29T23:11:48Z</time></trkpt><trkpt lat="59.4416928571" lon="30.2262580488"><ele>78.02</ele><time>2026-08-29T23:12:32Z</time></trkpt><trkpt lat="59.4417753350" lon="30.2261454798"><ele>77.92</ele><time>2026-08-29T23:12:52Z</time></trkpt><trkpt lat="59.4417585712" lon="30.2260170691"><ele>78.06</ele><time>2026-08-29T23:13:09Z</time></trkpt><trkpt lat="59.4417548832" lon="30.2259945218"><ele>78.01</ele><time>2026-08-29T23:13:28Z</time></trkpt><trkpt lat="59.4417486805" lon="30.2258931845"><ele>77.13</ele><time>2026-08-29T23:13:47Z</time></trkpt><trkpt lat="59.4417539611" lon="30.2257851418"><ele>77.71</ele><time>2026-08-29T23:14:04Z</time></trkpt><trkpt lat="59.4417722337" lon="30.2256742492"><ele>77.66</ele><time>2026-08-29T23:14:24Z</time></trkpt><trkpt lat="59.4418013189" lon="30.2254871652"><ele>77.81</ele><time>2026-08-29T23:14:43Z</time></trkpt><trkpt lat="59.4417888299" lon="30.2253775299"><ele>77.66</ele><time>2026-08-29T23:15:01Z</time></trkpt><trkpt lat="59.4417780172" lon="30.2252402343"><ele>77.72</ele><time>2026-08-29T23:15:18Z</time></trkpt><trkpt lat="59.4417472556" lon="30.2251491230"><ele>77.69</ele><time>2026-08-29T23:15:35Z</time></trkpt><trkpt lat="59.4417476747" lon="30.2251355443"><ele>78.31</ele><time>2026-08-29T23:15:40Z</time></trkpt><trkpt lat="59.4417562243" lon="30.2249629609"><ele>77.69</ele><time>2026-08-29T23:15:59Z</time></trkpt><trkpt lat="59.4417447411" lon="30.2248258330"><ele>77.76</ele><time>2026-08-29T23:16:18Z</time></trkpt><trkpt lat="59.4416934438" lon="30.2246531658"><ele>77.68</ele><time>2026-08-29T23:16:37Z</time></trkpt><trkpt lat="59.4416731596" lon="30.2244951669"><ele>77.65</ele><time>2026-08-29T23:16:58Z</time></trkpt><trkpt lat="59.4416515343" lon="30.2242686879"><ele>77.52</ele><time>2026-08-29T23:17:16Z</time></trkpt><trkpt lat="59.4416221976" lon="30.2241280396"><ele>77.46</ele><time>2026-08-29T23:17:31Z</time></trkpt><trkpt lat="59.4415922742" lon="30.2240295522"><ele>76.79</ele><time>2026-08-29T23:17:44Z</time></trkpt><trkpt lat="59.4415867422" lon="30.2239929233"><ele>75.71</ele><time>2026-08-29T23:18:04Z</time></trkpt><trkpt lat="59.4415686373" lon="30.2237981278"><ele>76.83</ele><time>2026-08-29T23:18:21Z</time></trkpt><trkpt lat="59.4415171724" lon="30.2235582378"><ele>77.10</ele><time>2026-08-29T23:18:39Z</time></trkpt><trkpt lat="59.4415361993" lon="30.2234219480"><ele>77.25</ele><time>2026-08-29T23:18:54Z</time></trkpt><trkpt lat="59.4415093772" lon="30.2232992370"><ele>77.15</ele><time>2026-08-29T23:19:08Z</time></trkpt><trkpt lat="59.4414977264" lon="30.2232654579"><ele>75.73</ele><time>2026-08-29T23:19:15Z</time></trkpt><trkpt lat="59.4414949603" lon="30.2232085448"><ele>76.93</ele><time>2026-08-29T23:19:28Z</time></trkpt><trkpt lat="59.4414745923" lon="30.2230625320"><ele>76.65</ele><time>2026-08-29T23:19:43Z</time></trkpt><trkpt lat="59.4414612651" lon="30.2229219675"><ele>76.88</ele><time>2026-08-29T23:19:57Z</time></trkpt><trkpt lat="59.4414286595" lon="30.2227701712"><ele>76.47</ele><time>2026-08-29T23:20:14Z</time></trkpt><trkpt lat="59.4414472673" lon="30.2227209695"><ele>76.20</ele><time>2026-08-29T23:21:02Z</time></trkpt><trkpt lat="59.4414479379" lon="30.2226778865"><ele>75.50</ele><time>2026-08-29T23:21:17Z</time></trkpt><trkpt lat="59.4414541405" lon="30.2225057222"><ele>75.98</ele><time>2026-08-29T23:21:45Z</time></trkpt><trkpt lat="59.4414469320" lon="30.2223605476"><ele>76.27</ele><time>2026-08-29T23:22:04Z</time></trkpt><trkpt lat="59.4414191879" lon="30.2221855335"><ele>76.09</ele><time>2026-08-29T23:22:21Z</time></trkpt><trkpt lat="59.4413962215" lon="30.2219868824"><ele>76.16</ele><time>2026-08-29T23:22:39Z</time></trkpt><trkpt lat="59.4414169248" lon="30.2218457311"><ele>76.16</ele><time>2026-08-29T23:22:55Z</time></trkpt><trkpt lat="59.4414242171" lon="30.2217288874"><ele>76.22</ele><time>2026-08-29T23:23:14Z</time></trkpt><trkpt lat="59.4414354488" lon="30.2215685416"><ele>76.30</ele><time>2026-08-29T23:23:33Z</time></trkpt><trkpt lat="59.4414229598" lon="30.2214307431"><ele>76.20</ele><time>2026-08-29T23:23:47Z</time></trkpt><trkpt lat="59.4414027594" lon="30.2212901786"><ele>76.09</ele><time>2026-08-29T23:24:05Z</time></trkpt><trkpt lat="59.4414057769" lon="30.2211365383"><ele>76.07</ele><time>2026-08-29T23:24:20Z</time></trkpt><trkpt lat="59.4413673878" lon="30.2210375480"><ele>75.92</ele><time>2026-08-29T23:24:40Z</time></trkpt><trkpt lat="59.4413849898" lon="30.2209533937"><ele>75.86</ele><time>2026-08-29T23:24:56Z</time></trkpt><trkpt lat="59.4413767755" lon="30.2208239771"><ele>75.90</ele><time>2026-08-29T23:25:12Z</time></trkpt><trkpt lat="59.4413404819" lon="30.2206591051"><ele>76.19</ele><time>2026-08-29T23:25:31Z</time></trkpt><trkpt lat="59.4413241372" lon="30.2204917185"><ele>76.33</ele><time>2026-08-29T23:25:51Z</time></trkpt><trkpt lat="59.4412893523" lon="30.2203649841"><ele>76.31</ele><time>2026-08-29T23:26:09Z</time></trkpt><trkpt lat="59.4412690680" lon="30.2202406805"><ele>76.12</ele><time>2026-08-29T23:26:27Z</time></trkpt><trkpt lat="59.4412854966" lon="30.2200945839"><ele>76.13</ele><time>2026-08-29T23:26:45Z</time></trkpt><trkpt lat="59.4412987400" lon="30.2200922370"><ele>76.43</ele><time>2026-08-29T23:27:01Z</time></trkpt><trkpt lat="59.4413344469" lon="30.2200109325"><ele>76.53</ele><time>2026-08-29T23:27:46Z</time></trkpt><trkpt lat="59.4413022604" lon="30.2200711984"><ele>75.48</ele><time>2026-08-29T23:28:30Z</time></trkpt><trkpt lat="59.4413099717" lon="30.2200481482"><ele>75.45</ele><time>2026-08-29T23:29:22Z</time></trkpt><trkpt lat="59.4413112290" lon="30.2200250980"><ele>75.55</ele><time>2026-08-29T23:30:50Z</time></trkpt><trkpt lat="59.4413300883" lon="30.2199959289"><ele>75.67</ele><time>2026-08-29T23:31:48Z</time></trkpt><trkpt lat="59.4413307589" lon="30.2199501637"><ele>75.92</ele><time>2026-08-29T23:33:01Z</time></trkpt><trkpt lat="59.4413387217" lon="30.2199377585"><ele>76.27</ele><time>2026-08-29T23:34:12Z</time></trkpt><trkpt lat="59.4413474388" lon="30.2199184801"><ele>76.91</ele><time>2026-08-29T23:35:30Z</time></trkpt><trkpt lat="59.4413611852" lon="30.2199318912"><ele>77.62</ele><time>2026-08-29T23:36:19Z</time></trkpt><trkpt lat="59.4413248915" lon="30.2198813483"><ele>77.91</ele><time>2026-08-29T23:37:34Z</time></trkpt><trkpt lat="59.4413190242" lon="30.2199050691"><ele>78.70</ele><time>2026-08-29T23:38:56Z</time></trkpt><trkpt lat="59.4412818924" lon="30.2199460566"><ele>79.07</ele><time>2026-08-29T23:40:19Z</time></trkpt><trkpt lat="59.4412790425" lon="30.2200722881"><ele>79.58</ele><time>2026-08-29T23:41:17Z</time></trkpt><trkpt lat="59.4412851613" lon="30.2201513294"><ele>80.23</ele><time>2026-08-29T23:42:14Z</time></trkpt><trkpt lat="59.4412489515" lon="30.2200422809"><ele>80.49</ele><time>2026-08-29T23:42:45Z</time></trkpt><trkpt lat="59.4412316848" lon="30.2199954260"><ele>79.83</ele><time>2026-08-29T23:43:24Z</time></trkpt><trkpt lat="59.4412307627" lon="30.2198635787"><ele>79.95</ele><time>2026-08-29T23:43:46Z</time></trkpt><trkpt lat="59.4412037730" lon="30.2196381893"><ele>79.87</ele><time>2026-08-29T23:44:07Z</time></trkpt><trkpt lat="59.4412388932" lon="30.2194877341"><ele>80.15</ele><time>2026-08-29T23:44:26Z</time></trkpt><trkpt lat="59.4412374683" lon="30.2194852196"><ele>80.57</ele><time>2026-08-29T23:44:50Z</time></trkpt><trkpt lat="59.4412596803" lon="30.2194280550"><ele>80.79</ele><time>2026-08-29T23:45:12Z</time></trkpt><trkpt lat="59.4412992429" lon="30.2194110397"><ele>77.77</ele><time>2026-08-29T23:45:16Z</time></trkpt><trkpt lat="59.4413895998" lon="30.2193839662"><ele>80.81</ele><time>2026-08-29T23:45:28Z</time></trkpt><trkpt lat="59.4414603431" lon="30.2194125485"><ele>80.42</ele><time>2026-08-29T23:45:45Z</time></trkpt><trkpt lat="59.4414466806" lon="30.2193237841"><ele>80.65</ele><time>2026-08-29T23:46:19Z</time></trkpt><trkpt lat="59.4414449204" lon="30.2192783542"><ele>80.67</ele><time>2026-08-29T23:46:22Z</time></trkpt><trkpt lat="59.4414468482" lon="30.2192205191"><ele>80.72</ele><time>2026-08-29T23:46:25Z</time></trkpt><trkpt lat="59.4414399751" lon="30.2190938685"><ele>80.55</ele><time>2026-08-29T23:46:41Z</time></trkpt><trkpt lat="59.4414277375" lon="30.2189479396"><ele>80.95</ele><time>2026-08-29T23:46:58Z</time></trkpt><trkpt lat="59.4413875882" lon="30.2188083809"><ele>80.85</ele><time>2026-08-29T23:47:21Z</time></trkpt><trkpt lat="59.4413933717" lon="30.2186254878"><ele>81.15</ele><time>2026-08-29T23:47:39Z</time></trkpt><trkpt lat="59.4413979817" lon="30.2184099890"><ele>80.62</ele><time>2026-08-29T23:48:07Z</time></trkpt><trkpt lat="59.4413983170" lon="30.2182661556"><ele>80.63</ele><time>2026-08-29T23:48:28Z</time></trkpt><trkpt lat="59.4414008316" lon="30.2180508245"><ele>80.71</ele><time>2026-08-29T23:48:46Z</time></trkpt><trkpt lat="59.4413898513" lon="30.2179297898"><ele>80.79</ele><time>2026-08-29T23:49:03Z</time></trkpt><trkpt lat="59.4413777813" lon="30.2178808395"><ele>81.08</ele><time>2026-08-29T23:49:24Z</time></trkpt><trkpt lat="59.4413557369" lon="30.2177222539"><ele>80.99</ele><time>2026-08-29T23:49:41Z</time></trkpt><trkpt lat="59.4413827267" lon="30.2175760735"><ele>80.97</ele><time>2026-08-29T23:49:56Z</time></trkpt><trkpt lat="59.4413487799" lon="30.2174919192"><ele>81.06</ele><time>2026-08-29T23:50:14Z</time></trkpt><trkpt lat="59.4413723331" lon="30.2172776777"><ele>80.95</ele><time>2026-08-29T23:50:35Z</time></trkpt><trkpt lat="59.4413958862" lon="30.2173064277"><ele>81.70</ele><time>2026-08-29T23:51:02Z</time></trkpt><trkpt lat="59.4413915277" lon="30.2172252908"><ele>81.33</ele><time>2026-08-29T23:51:56Z</time></trkpt><trkpt lat="59.4413780328" lon="30.2170641907"><ele>81.46</ele><time>2026-08-29T23:52:17Z</time></trkpt><trkpt lat="59.4413789548" lon="30.2169075329"><ele>81.44</ele><time>2026-08-29T23:52:36Z</time></trkpt><trkpt lat="59.4413802959" lon="30.2167063672"><ele>81.61</ele><time>2026-08-29T23:52:54Z</time></trkpt><trkpt lat="59.4413862471" lon="30.2165796328"><ele>81.44</ele><time>2026-08-29T23:53:20Z</time></trkpt><trkpt lat="59.4413867500" lon="30.2164130844"><ele>81.60</ele><time>2026-08-29T23:53:39Z</time></trkpt><trkpt lat="59.4413889293" lon="30.2163364738"><ele>81.15</ele><time>2026-08-29T23:53:57Z</time></trkpt><trkpt lat="59.4413457625" lon="30.2162254974"><ele>81.71</ele><time>2026-08-29T23:54:15Z</time></trkpt><trkpt lat="59.4413577486" lon="30.2160545904"><ele>82.47</ele><time>2026-08-29T23:54:32Z</time></trkpt><trkpt lat="59.4413816370" lon="30.2159371600"><ele>81.46</ele><time>2026-08-29T23:54:52Z</time></trkpt><trkpt lat="59.4413963892" lon="30.2157823462"><ele>81.65</ele><time>2026-08-29T23:55:11Z</time></trkpt><trkpt lat="59.4413779490" lon="30.2156311367"><ele>81.58</ele><time>2026-08-29T23:55:27Z</time></trkpt><trkpt lat="59.4413627777" lon="30.2155233454"><ele>81.75</ele><time>2026-08-29T23:55:43Z</time></trkpt><trkpt lat="59.4413344469" lon="30.2153381892"><ele>81.78</ele><time>2026-08-29T23:55:59Z</time></trkpt><trkpt lat="59.4413397275" lon="30.2151863929"><ele>81.68</ele><time>2026-08-29T23:56:15Z</time></trkpt><trkpt lat="59.4413558207" lon="30.2151815314"><ele>85.21</ele><time>2026-08-29T23:56:31Z</time></trkpt><trkpt lat="59.4413594250" lon="30.2151739877"><ele>81.71</ele><time>2026-08-29T23:56:33Z</time></trkpt><trkpt lat="59.4413615204" lon="30.2151724789"><ele>81.89</ele><time>2026-08-29T23:56:34Z</time></trkpt><trkpt lat="59.4413760211" lon="30.2150747459"><ele>81.54</ele><time>2026-08-29T23:57:04Z</time></trkpt><trkpt lat="59.4413660467" lon="30.2149561420"><ele>81.62</ele><time>2026-08-29T23:57:19Z</time></trkpt><trkpt lat="59.4413519651" lon="30.2148626000"><ele>81.79</ele><time>2026-08-29T23:57:39Z</time></trkpt><trkpt lat="59.4413624424" lon="30.2147730812"><ele>81.36</ele><time>2026-08-29T23:58:02Z</time></trkpt><trkpt lat="59.4413402304" lon="30.2145976480"><ele>81.13</ele><time>2026-08-29T23:58:19Z</time></trkpt><trkpt lat="59.4413379673" lon="30.2145204507"><ele>81.36</ele><time>2026-08-29T23:58:28Z</time></trkpt><trkpt lat="59.4413316809" lon="30.2143424191"><ele>81.35</ele><time>2026-08-29T23:58:45Z</time></trkpt><trkpt lat="59.4413496181" lon="30.2141235676"><ele>81.40</ele><time>2026-08-29T23:59:00Z</time></trkpt><trkpt lat="59.4414153323" lon="30.2141229808"><ele>81.67</ele><time>2026-08-29T23:59:35Z</time></trkpt><trkpt lat="59.4413907733" lon="30.2141052950"><ele>81.92</ele><time>2026-08-30T00:00:30Z</time></trkpt><trkpt lat="59.4413766917" lon="30.2139309514"><ele>81.75</ele><time>2026-08-30T00:00:46Z</time></trkpt><trkpt lat="59.4413337763" lon="30.2137715276"><ele>81.84</ele><time>2026-08-30T00:01:03Z</time></trkpt><trkpt lat="59.4413745962" lon="30.2136112656"><ele>81.84</ele><time>2026-08-30T00:01:17Z</time></trkpt><trkpt lat="59.4413907733" lon="30.2134989481"><ele>81.91</ele><time>2026-08-30T00:01:30Z</time></trkpt><trkpt lat="59.4414155837" lon="30.2133991197"><ele>82.84</ele><time>2026-08-30T00:01:50Z</time></trkpt><trkpt lat="59.4414002448" lon="30.2132578846"><ele>82.01</ele><time>2026-08-30T00:02:07Z</time></trkpt><trkpt lat="59.4414003287" lon="30.2131536976"><ele>82.22</ele><time>2026-08-30T00:02:21Z</time></trkpt><trkpt lat="59.4414052740" lon="30.2129623387"><ele>82.31</ele><time>2026-08-30T00:02:41Z</time></trkpt><trkpt lat="59.4413906895" lon="30.2127887495"><ele>82.27</ele><time>2026-08-30T00:03:01Z</time></trkpt><trkpt lat="59.4414009992" lon="30.2126162499"><ele>82.07</ele><time>2026-08-30T00:03:19Z</time></trkpt><trkpt lat="59.4414001610" lon="30.2124422416"><ele>82.03</ele><time>2026-08-30T00:03:36Z</time></trkpt><trkpt lat="59.4413726684" lon="30.2123034373"><ele>82.08</ele><time>2026-08-30T00:03:47Z</time></trkpt><trkpt lat="59.4413586706" lon="30.2122649644"><ele>81.72</ele><time>2026-08-30T00:04:02Z</time></trkpt><trkpt lat="59.4413457625" lon="30.2121861745"><ele>82.42</ele><time>2026-08-30T00:04:23Z</time></trkpt><trkpt lat="59.4413048588" lon="30.2120878547"><ele>82.55</ele><time>2026-08-30T00:04:42Z</time></trkpt><trkpt lat="59.4412770309" lon="30.2119875234"><ele>82.66</ele><time>2026-08-30T00:04:57Z</time></trkpt><trkpt lat="59.4412090536" lon="30.2119017765"><ele>82.56</ele><time>2026-08-30T00:05:17Z</time></trkpt><trkpt lat="59.4411922898" lon="30.2119034529"><ele>82.27</ele><time>2026-08-30T00:05:49Z</time></trkpt><trkpt lat="59.4411870930" lon="30.2118368167"><ele>82.47</ele><time>2026-08-30T00:06:04Z</time></trkpt><trkpt lat="59.4411991630" lon="30.2117754612"><ele>82.34</ele><time>2026-08-30T00:06:18Z</time></trkpt><trkpt lat="59.4411482848" lon="30.2117348928"><ele>82.07</ele><time>2026-08-30T00:06:40Z</time></trkpt><trkpt lat="59.4411057886" lon="30.2115829289"><ele>82.36</ele><time>2026-08-30T00:06:57Z</time></trkpt><trkpt lat="59.4411501288" lon="30.2115289494"><ele>82.49</ele><time>2026-08-30T00:07:21Z</time></trkpt><trkpt lat="59.4411308505" lon="30.2115269378"><ele>82.21</ele><time>2026-08-30T00:07:51Z</time></trkpt><trkpt lat="59.4411188643" lon="30.2115161251"><ele>73.52</ele><time>2026-08-30T00:08:02Z</time></trkpt><trkpt lat="59.4411191996" lon="30.2115150355"><ele>84.40</ele><time>2026-08-30T00:08:03Z</time></trkpt><trkpt lat="59.4411193673" lon="30.2115136944"><ele>81.84</ele><time>2026-08-30T00:08:41Z</time></trkpt><trkpt lat="59.4411222171" lon="30.2115790732"><ele>81.65</ele><time>2026-08-30T00:09:25Z</time></trkpt><trkpt lat="59.4411146734" lon="30.2116213180"><ele>81.88</ele><time>2026-08-30T00:10:21Z</time></trkpt><trkpt lat="59.4411376398" lon="30.2115838509"><ele>81.73</ele><time>2026-08-30T00:11:02Z</time></trkpt><trkpt lat="59.4411920384" lon="30.2116057277"><ele>81.88</ele><time>2026-08-30T00:11:36Z</time></trkpt><trkpt lat="59.4411471952" lon="30.2115767263"><ele>83.57</ele><time>2026-08-30T00:12:19Z</time></trkpt><trkpt lat="59.4411318563" lon="30.2116255090"><ele>80.09</ele><time>2026-08-30T00:12:28Z</time></trkpt><trkpt lat="59.4411324430" lon="30.2116112597"><ele>84.19</ele><time>2026-08-30T00:12:29Z</time></trkpt><trkpt lat="59.4411303475" lon="30.2116005309"><ele>82.95</ele><time>2026-08-30T00:12:30Z</time></trkpt><trkpt lat="59.4411272462" lon="30.2115688473"><ele>82.09</ele><time>2026-08-30T00:12:32Z</time></trkpt><trkpt lat="59.4411287550" lon="30.2113716211"><ele>82.20</ele><time>2026-08-30T00:13:05Z</time></trkpt><trkpt lat="59.4411389809" lon="30.2111666836"><ele>82.45</ele><time>2026-08-30T00:13:22Z</time></trkpt><trkpt lat="59.4411054533" lon="30.2110515162"><ele>82.78</ele><time>2026-08-30T00:13:38Z</time></trkpt><trkpt lat="59.4410892762" lon="30.2109477483"><ele>82.62</ele><time>2026-08-30T00:13:52Z</time></trkpt><trkpt lat="59.4410736859" lon="30.2107731532"><ele>82.51</ele><time>2026-08-30T00:14:08Z</time></trkpt><trkpt lat="59.4410676509" lon="30.2106639370"><ele>82.23</ele><time>2026-08-30T00:14:25Z</time></trkpt><trkpt lat="59.4410648849" lon="30.2106651943"><ele>82.00</ele><time>2026-08-30T00:14:35Z</time></trkpt><trkpt lat="59.4410493784" lon="30.2106236201"><ele>82.36</ele><time>2026-08-30T00:15:41Z</time></trkpt><trkpt lat="59.4410543237" lon="30.2104888391"><ele>82.43</ele><time>2026-08-30T00:15:57Z</time></trkpt><trkpt lat="59.4411031902" lon="30.2105240431"><ele>82.64</ele><time>2026-08-30T00:16:14Z</time></trkpt><trkpt lat="59.4411032740" lon="30.2105190977"><ele>79.58</ele><time>2026-08-30T00:16:47Z</time></trkpt><trkpt lat="59.4411030225" lon="30.2105175890"><ele>76.57</ele><time>2026-08-30T00:16:48Z</time></trkpt><trkpt lat="59.4411034416" lon="30.2105158288"><ele>83.45</ele><time>2026-08-30T00:16:49Z</time></trkpt><trkpt lat="59.4411039446" lon="30.2105140686"><ele>87.92</ele><time>2026-08-30T00:16:50Z</time></trkpt><trkpt lat="59.4411043637" lon="30.2105120569"><ele>86.92</ele><time>2026-08-30T00:16:51Z</time></trkpt><trkpt lat="59.4411043637" lon="30.2105070278"><ele>84.15</ele><time>2026-08-30T00:16:54Z</time></trkpt><trkpt lat="59.4411000889" lon="30.2105100453"><ele>80.61</ele><time>2026-08-30T00:17:05Z</time></trkpt><trkpt lat="59.4410980772" lon="30.2105092909"><ele>84.29</ele><time>2026-08-30T00:17:06Z</time></trkpt><trkpt lat="59.4410984963" lon="30.2105198521"><ele>82.96</ele><time>2026-08-30T00:17:13Z</time></trkpt><trkpt lat="59.4410875160" lon="30.2103766892"><ele>83.08</ele><time>2026-08-30T00:17:30Z</time></trkpt><trkpt lat="59.4411270786" lon="30.2103229612"><ele>82.76</ele><time>2026-08-30T00:17:51Z</time></trkpt><trkpt lat="59.4411392324" lon="30.2103031799"><ele>81.66</ele><time>2026-08-30T00:18:25Z</time></trkpt><trkpt lat="59.4411401544" lon="30.2103419881"><ele>81.79</ele><time>2026-08-30T00:19:10Z</time></trkpt><trkpt lat="59.4411565829" lon="30.2103614341"><ele>82.87</ele><time>2026-08-30T00:20:08Z</time></trkpt><trkpt lat="59.4411360472" lon="30.2102791239"><ele>83.26</ele><time>2026-08-30T00:20:34Z</time></trkpt><trkpt lat="59.4411052857" lon="30.2102541458"><ele>84.00</ele><time>2026-08-30T00:20:45Z</time></trkpt><trkpt lat="59.4410485402" lon="30.2102565765"><ele>84.62</ele><time>2026-08-30T00:21:02Z</time></trkpt><trkpt lat="59.4410173595" lon="30.2102900203"><ele>84.28</ele><time>2026-08-30T00:21:24Z</time></trkpt><trkpt lat="59.4409834966" lon="30.2103292476"><ele>83.98</ele><time>2026-08-30T00:21:46Z</time></trkpt><trkpt lat="59.4409507234" lon="30.2104156651"><ele>83.05</ele><time>2026-08-30T00:22:07Z</time></trkpt><trkpt lat="59.4409640506" lon="30.2104287408"><ele>82.97</ele><time>2026-08-30T00:22:38Z</time></trkpt><trkpt lat="59.4408980850" lon="30.2104396373"><ele>83.35</ele><time>2026-08-30T00:23:01Z</time></trkpt><trkpt lat="59.4408649765" lon="30.2103970572"><ele>84.28</ele><time>2026-08-30T00:23:22Z</time></trkpt><trkpt lat="59.4408284314" lon="30.2104786970"><ele>83.61</ele><time>2026-08-30T00:23:44Z</time></trkpt><trkpt lat="59.4407955743" lon="30.2105792798"><ele>83.71</ele><time>2026-08-30T00:24:05Z</time></trkpt><trkpt lat="59.4407476299" lon="30.2105492726"><ele>83.88</ele><time>2026-08-30T00:24:45Z</time></trkpt><trkpt lat="59.4407213945" lon="30.2105521224"><ele>83.76</ele><time>2026-08-30T00:25:11Z</time></trkpt><trkpt lat="59.4407321233" lon="30.2105695568"><ele>83.28</ele><time>2026-08-30T00:25:36Z</time></trkpt><trkpt lat="59.4407214783" lon="30.2105521224"><ele>83.84</ele><time>2026-08-30T00:26:04Z</time></trkpt><trkpt lat="59.4407287706" lon="30.2105913498"><ele>83.25</ele><time>2026-08-30T00:26:43Z</time></trkpt><trkpt lat="59.4406853523" lon="30.2105671261"><ele>83.88</ele><time>2026-08-30T00:27:00Z</time></trkpt><trkpt lat="59.4406213984" lon="30.2106321696"><ele>83.11</ele><time>2026-08-30T00:27:19Z</time></trkpt><trkpt lat="59.4405446202" lon="30.2106748335"><ele>82.40</ele><time>2026-08-30T00:27:48Z</time></trkpt><trkpt lat="59.4405178819" lon="30.2107012365"><ele>83.63</ele><time>2026-08-30T00:28:15Z</time></trkpt><trkpt lat="59.4404858630" lon="30.2106921840"><ele>82.64</ele><time>2026-08-30T00:28:47Z</time></trkpt><trkpt lat="59.4404194783" lon="30.2106931899"><ele>83.17</ele><time>2026-08-30T00:29:10Z</time></trkpt><trkpt lat="59.4403902255" lon="30.2106977161"><ele>82.52</ele><time>2026-08-30T00:29:29Z</time></trkpt><trkpt lat="59.4403705280" lon="30.2107481752"><ele>82.23</ele><time>2026-08-30T00:29:54Z</time></trkpt><trkpt lat="59.4403296243" lon="30.2107202634"><ele>82.15</ele><time>2026-08-30T00:30:19Z</time></trkpt><trkpt lat="59.4402900618" lon="30.2107320819"><ele>81.97</ele><time>2026-08-30T00:30:40Z</time></trkpt><trkpt lat="59.4402339868" lon="30.2107203472"><ele>82.04</ele><time>2026-08-30T00:31:01Z</time></trkpt><trkpt lat="59.4401662610" lon="30.2106251288"><ele>83.01</ele><time>2026-08-30T00:31:25Z</time></trkpt><trkpt lat="59.4401452225" lon="30.2106932737"><ele>81.87</ele><time>2026-08-30T00:31:47Z</time></trkpt><trkpt lat="59.4401182327" lon="30.2106495202"><ele>81.73</ele><time>2026-08-30T00:32:28Z</time></trkpt><trkpt lat="59.4401042350" lon="30.2105462551"><ele>82.37</ele><time>2026-08-30T00:32:47Z</time></trkpt><trkpt lat="59.4400683604" lon="30.2105153259"><ele>82.02</ele><time>2026-08-30T00:33:08Z</time></trkpt><trkpt lat="59.4400481600" lon="30.2105124760"><ele>82.10</ele><time>2026-08-30T00:33:46Z</time></trkpt><trkpt lat="59.4400308933" lon="30.2104400564"><ele>81.53</ele><time>2026-08-30T00:34:04Z</time></trkpt><trkpt lat="59.4399970304" lon="30.2103682235"><ele>81.47</ele><time>2026-08-30T00:34:36Z</time></trkpt><trkpt lat="59.4399898220" lon="30.2103003301"><ele>81.17</ele><time>2026-08-30T00:35:00Z</time></trkpt><trkpt lat="59.4399512652" lon="30.2102389745"><ele>81.50</ele><time>2026-08-30T00:35:18Z</time></trkpt><trkpt lat="59.4399419613" lon="30.2101878449"><ele>81.26</ele><time>2026-08-30T00:35:40Z</time></trkpt><trkpt lat="59.4399399497" lon="30.2101452649"><ele>81.33</ele><time>2026-08-30T00:36:02Z</time></trkpt><trkpt lat="59.4399363454" lon="30.2101502940"><ele>82.62</ele><time>2026-08-30T00:36:10Z</time></trkpt><trkpt lat="59.4399375189" lon="30.2101399843"><ele>82.18</ele><time>2026-08-30T00:36:54Z</time></trkpt><trkpt lat="59.4399381895" lon="30.2101455163"><ele>82.16</ele><time>2026-08-30T00:38:06Z</time></trkpt><trkpt lat="59.4399233535" lon="30.2101759426"><ele>81.08</ele><time>2026-08-30T00:38:46Z</time></trkpt><trkpt lat="59.4399100263" lon="30.2101722546"><ele>80.54</ele><time>2026-08-30T00:39:19Z</time></trkpt><trkpt lat="59.4398889877" lon="30.2101260703"><ele>80.58</ele><time>2026-08-30T00:39:35Z</time></trkpt><trkpt lat="59.4398637582" lon="30.2100782935"><ele>80.38</ele><time>2026-08-30T00:39:50Z</time></trkpt><trkpt lat="59.4398421329" lon="30.2100043651"><ele>80.07</ele><time>2026-08-30T00:40:12Z</time></trkpt><trkpt lat="59.4398350921" lon="30.2099230606"><ele>81.33</ele><time>2026-08-30T00:40:31Z</time></trkpt><trkpt lat="59.4398352597" lon="30.2099174447"><ele>80.49</ele><time>2026-08-30T00:40:33Z</time></trkpt><trkpt lat="59.4398167357" lon="30.2098863479"><ele>79.97</ele><time>2026-08-30T00:40:57Z</time></trkpt><trkpt lat="59.4398346730" lon="30.2098337933"><ele>80.21</ele><time>2026-08-30T00:41:24Z</time></trkpt><trkpt lat="59.4398028217" lon="30.2098700870"><ele>79.76</ele><time>2026-08-30T00:41:47Z</time></trkpt><trkpt lat="59.4397665281" lon="30.2098795585"><ele>79.43</ele><time>2026-08-30T00:42:15Z</time></trkpt><trkpt lat="59.4397547934" lon="30.2098507248"><ele>79.95</ele><time>2026-08-30T00:42:52Z</time></trkpt><trkpt lat="59.4397359341" lon="30.2098179515"><ele>79.65</ele><time>2026-08-30T00:43:17Z</time></trkpt><trkpt lat="59.4397136383" lon="30.2097938955"><ele>79.37</ele><time>2026-08-30T00:43:48Z</time></trkpt><trkpt lat="59.4397238642" lon="30.2097188774"><ele>79.55</ele><time>2026-08-30T00:44:08Z</time></trkpt><trkpt lat="59.4396599103" lon="30.2096493915"><ele>79.58</ele><time>2026-08-30T00:44:32Z</time></trkpt><trkpt lat="59.4396274723" lon="30.2096733637"><ele>80.21</ele><time>2026-08-30T00:44:45Z</time></trkpt><trkpt lat="59.4396098703" lon="30.2096516546"><ele>79.49</ele><time>2026-08-30T00:45:08Z</time></trkpt><trkpt lat="59.4396040868" lon="30.2096399199"><ele>79.02</ele><time>2026-08-30T00:45:30Z</time></trkpt><trkpt lat="59.4396003988" lon="30.2095834259"><ele>79.63</ele><time>2026-08-30T00:45:59Z</time></trkpt><trkpt lat="59.4395649433" lon="30.2095240820"><ele>79.41</ele><time>2026-08-30T00:46:20Z</time></trkpt><trkpt lat="59.4394914340" lon="30.2095375769"><ele>79.43</ele><time>2026-08-30T00:46:37Z</time></trkpt><trkpt lat="59.4394627679" lon="30.2096084878"><ele>79.61</ele><time>2026-08-30T00:46:51Z</time></trkpt><trkpt lat="59.4394323416" lon="30.2096631378"><ele>78.83</ele><time>2026-08-30T00:47:18Z</time></trkpt><trkpt lat="59.4393955451" lon="30.2096425183"><ele>78.75</ele><time>2026-08-30T00:47:35Z</time></trkpt><trkpt lat="59.4393394701" lon="30.2097149380"><ele>78.46</ele><time>2026-08-30T00:48:00Z</time></trkpt><trkpt lat="59.4393524621" lon="30.2097041253"><ele>78.76</ele><time>2026-08-30T00:48:45Z</time></trkpt><trkpt lat="59.4392984826" lon="30.2096245810"><ele>79.44</ele><time>2026-08-30T00:49:19Z</time></trkpt><trkpt lat="59.4392385520" lon="30.2096722741"><ele>78.55</ele><time>2026-08-30T00:49:40Z</time></trkpt><trkpt lat="59.4392173458" lon="30.2096486371"><ele>79.67</ele><time>2026-08-30T00:50:07Z</time></trkpt><trkpt lat="59.4391789567" lon="30.2096411772"><ele>79.25</ele><time>2026-08-30T00:50:42Z</time></trkpt><trkpt lat="59.4391511288" lon="30.2097400837"><ele>78.55</ele><time>2026-08-30T00:51:02Z</time></trkpt><trkpt lat="59.4390864205" lon="30.2097429335"><ele>78.61</ele><time>2026-08-30T00:51:22Z</time></trkpt><trkpt lat="59.4390874263" lon="30.2097530756"><ele>77.73</ele><time>2026-08-30T00:51:49Z</time></trkpt><trkpt lat="59.4390876777" lon="30.2097509801"><ele>80.02</ele><time>2026-08-30T00:51:53Z</time></trkpt><trkpt lat="59.4390725903" lon="30.2097216435"><ele>78.39</ele><time>2026-08-30T00:52:27Z</time></trkpt><trkpt lat="59.4390801340" lon="30.2097401675"><ele>78.17</ele><time>2026-08-30T00:53:16Z</time></trkpt><trkpt lat="59.4390471932" lon="30.2096116729"><ele>79.52</ele><time>2026-08-30T00:53:36Z</time></trkpt><trkpt lat="59.4390661363" lon="30.2096563485"><ele>78.31</ele><time>2026-08-30T00:54:25Z</time></trkpt><trkpt lat="59.4391059503" lon="30.2097603679"><ele>78.35</ele><time>2026-08-30T00:54:54Z</time></trkpt><trkpt lat="59.4390946347" lon="30.2097604517"><ele>77.58</ele><time>2026-08-30T00:55:26Z</time></trkpt><trkpt lat="59.4390493724" lon="30.2097848430"><ele>77.18</ele><time>2026-08-30T00:56:41Z</time></trkpt><trkpt lat="59.4390791282" lon="30.2097320370"><ele>77.08</ele><time>2026-08-30T00:58:20Z</time></trkpt><trkpt lat="59.4390738476" lon="30.2097165305"><ele>76.92</ele><time>2026-08-30T00:59:51Z</time></trkpt><trkpt lat="59.4390799664" lon="30.2097269241"><ele>76.88</ele><time>2026-08-30T01:01:44Z</time></trkpt><trkpt lat="59.4390854985" lon="30.2097318694"><ele>76.70</ele><time>2026-08-30T01:03:25Z</time></trkpt><trkpt lat="59.4391111471" lon="30.2097196318"><ele>76.55</ele><time>2026-08-30T01:04:49Z</time></trkpt><trkpt lat="59.4391057827" lon="30.2097541653"><ele>76.44</ele><time>2026-08-30T01:06:40Z</time></trkpt><trkpt lat="59.4390980713" lon="30.2097394969"><ele>76.38</ele><time>2026-08-30T01:08:14Z</time></trkpt><trkpt lat="59.4390967302" lon="30.2097297739"><ele>76.95</ele><time>2026-08-30T01:10:13Z</time></trkpt><trkpt lat="59.4390934613" lon="30.2097225655"><ele>76.70</ele><time>2026-08-30T01:11:33Z</time></trkpt><trkpt lat="59.4390871748" lon="30.2097112499"><ele>76.22</ele><time>2026-08-30T01:13:16Z</time></trkpt><trkpt lat="59.4390691537" lon="30.2097196318"><ele>76.30</ele><time>2026-08-30T01:14:12Z</time></trkpt><trkpt lat="59.4390652981" lon="30.2097226493"><ele>76.17</ele><time>2026-08-30T01:15:47Z</time></trkpt><trkpt lat="59.4390826486" lon="30.2097546682"><ele>77.05</ele><time>2026-08-30T01:16:35Z</time></trkpt><trkpt lat="59.4390789606" lon="30.2097802330"><ele>77.08</ele><time>2026-08-30T01:17:27Z</time></trkpt><trkpt lat="59.4390477799" lon="30.2097580209"><ele>76.87</ele><time>2026-08-30T01:17:54Z</time></trkpt><trkpt lat="59.4390288368" lon="30.2097831666"><ele>77.16</ele><time>2026-08-30T01:18:18Z</time></trkpt><trkpt lat="59.4389860891" lon="30.2097768802"><ele>77.06</ele><time>2026-08-30T01:18:37Z</time></trkpt><trkpt lat="59.4389657211" lon="30.2097583562"><ele>77.01</ele><time>2026-08-30T01:19:00Z</time></trkpt><trkpt lat="59.4389478676" lon="30.2099191211"><ele>77.50</ele><time>2026-08-30T01:19:20Z</time></trkpt><trkpt lat="59.4389663916" lon="30.2098705899"><ele>77.64</ele><time>2026-08-30T01:19:36Z</time></trkpt><trkpt lat="59.4389706664" lon="30.2098254953"><ele>77.93</ele><time>2026-08-30T01:20:03Z</time></trkpt><trkpt lat="59.4389676489" lon="30.2098006848"><ele>77.49</ele><time>2026-08-30T01:20:53Z</time></trkpt><trkpt lat="59.4389205426" lon="30.2097529918"><ele>76.71</ele><time>2026-08-30T01:21:13Z</time></trkpt><trkpt lat="59.4388918765" lon="30.2097602841"><ele>77.07</ele><time>2026-08-30T01:21:29Z</time></trkpt><trkpt lat="59.4388118293" lon="30.2097922191"><ele>77.19</ele><time>2026-08-30T01:21:48Z</time></trkpt><trkpt lat="59.4387550838" lon="30.2098454442"><ele>77.48</ele><time>2026-08-30T01:22:10Z</time></trkpt><trkpt lat="59.4387177844" lon="30.2100029401"><ele>77.16</ele><time>2026-08-30T01:22:27Z</time></trkpt><trkpt lat="59.4386218954" lon="30.2099614497"><ele>77.14</ele><time>2026-08-30T01:22:44Z</time></trkpt><trkpt lat="59.4386253320" lon="30.2097791433"><ele>77.38</ele><time>2026-08-30T01:23:02Z</time></trkpt><trkpt lat="59.4385912176" lon="30.2098011877"><ele>76.86</ele><time>2026-08-30T01:23:25Z</time></trkpt><trkpt lat="59.4385395851" lon="30.2097746171"><ele>76.95</ele><time>2026-08-30T01:23:50Z</time></trkpt><trkpt lat="59.4384477194" lon="30.2098081447"><ele>77.37</ele><time>2026-08-30T01:24:14Z</time></trkpt><trkpt lat="59.4383693486" lon="30.2098764572"><ele>77.92</ele><time>2026-08-30T01:24:37Z</time></trkpt><trkpt lat="59.4383108430" lon="30.2097818255"><ele>77.16</ele><time>2026-08-30T01:24:53Z</time></trkpt><trkpt lat="59.4382965099" lon="30.2098116651"><ele>77.71</ele><time>2026-08-30T01:25:21Z</time></trkpt><trkpt lat="59.4382451288" lon="30.2098568436"><ele>77.66</ele><time>2026-08-30T01:25:41Z</time></trkpt><trkpt lat="59.4381743018" lon="30.2098105755"><ele>77.56</ele><time>2026-08-30T01:26:03Z</time></trkpt><trkpt lat="59.4381196517" lon="30.2097857650"><ele>77.81</ele><time>2026-08-30T01:26:25Z</time></trkpt><trkpt lat="59.4380327314" lon="30.2097698394"><ele>77.61</ele><time>2026-08-30T01:26:45Z</time></trkpt><trkpt lat="59.4380012993" lon="30.2097826637"><ele>77.38</ele><time>2026-08-30T01:27:05Z</time></trkpt><trkpt lat="59.4379712921" lon="30.2097182907"><ele>77.99</ele><time>2026-08-30T01:27:36Z</time></trkpt><trkpt lat="59.4379600603" lon="30.2096483856"><ele>77.97</ele><time>2026-08-30T01:28:23Z</time></trkpt><trkpt lat="59.4379220903" lon="30.2097166982"><ele>76.86</ele><time>2026-08-30T01:29:05Z</time></trkpt><trkpt lat="59.4378548674" lon="30.2096999343"><ele>76.42</ele><time>2026-08-30T01:29:35Z</time></trkpt><trkpt lat="59.4377883989" lon="30.2097133454"><ele>76.43</ele><time>2026-08-30T01:30:01Z</time></trkpt><trkpt lat="59.4377411250" lon="30.2096868586"><ele>76.53</ele><time>2026-08-30T01:30:29Z</time></trkpt><trkpt lat="59.4376943540" lon="30.2096991800"><ele>76.57</ele><time>2026-08-30T01:30:53Z</time></trkpt><trkpt lat="59.4376879837" lon="30.2096826676"><ele>80.01</ele><time>2026-08-30T01:30:58Z</time></trkpt><trkpt lat="59.4376869779" lon="30.2096782252"><ele>78.36</ele><time>2026-08-30T01:30:59Z</time></trkpt><trkpt lat="59.4376597367" lon="30.2096436918"><ele>76.93</ele><time>2026-08-30T01:31:17Z</time></trkpt><trkpt lat="59.4376811944" lon="30.2096457873"><ele>76.99</ele><time>2026-08-30T01:31:40Z</time></trkpt><trkpt lat="59.4376722258" lon="30.2096412610"><ele>76.85</ele><time>2026-08-30T01:32:37Z</time></trkpt><trkpt lat="59.4376155641" lon="30.2096437756"><ele>76.47</ele><time>2026-08-30T01:32:59Z</time></trkpt><trkpt lat="59.4375548791" lon="30.2096065599"><ele>76.42</ele><time>2026-08-30T01:33:18Z</time></trkpt><trkpt lat="59.4375314936" lon="30.2096178755"><ele>76.55</ele><time>2026-08-30T01:33:39Z</time></trkpt><trkpt lat="59.4374633487" lon="30.2096394170"><ele>76.42</ele><time>2026-08-30T01:34:01Z</time></trkpt><trkpt lat="59.4374586549" lon="30.2096186299"><ele>76.52</ele><time>2026-08-30T01:34:25Z</time></trkpt><trkpt lat="59.4374562241" lon="30.2096229885"><ele>76.36</ele><time>2026-08-30T01:35:07Z</time></trkpt><trkpt lat="59.4374615885" lon="30.2096060570"><ele>76.49</ele><time>2026-08-30T01:35:34Z</time></trkpt><trkpt lat="59.4374653604" lon="30.2096232399"><ele>76.29</ele><time>2026-08-30T01:35:59Z</time></trkpt><trkpt lat="59.4375116285" lon="30.2095775586"><ele>76.34</ele><time>2026-08-30T01:36:34Z</time></trkpt><trkpt lat="59.4374935236" lon="30.2096116729"><ele>76.15</ele><time>2026-08-30T01:36:58Z</time></trkpt><trkpt lat="59.4374732394" lon="30.2096641436"><ele>76.07</ele><time>2026-08-30T01:37:26Z</time></trkpt><trkpt lat="59.4374930207" lon="30.2096345555"><ele>75.50</ele><time>2026-08-30T01:38:01Z</time></trkpt><trkpt lat="59.4375024922" lon="30.2095737867"><ele>75.86</ele><time>2026-08-30T01:38:31Z</time></trkpt><trkpt lat="59.4375133887" lon="30.2096101642"><ele>75.63</ele><time>2026-08-30T01:38:58Z</time></trkpt><trkpt lat="59.4374880753" lon="30.2095962502"><ele>75.60</ele><time>2026-08-30T01:39:28Z</time></trkpt><trkpt lat="59.4374858961" lon="30.2095965855"><ele>73.92</ele><time>2026-08-30T01:39:41Z</time></trkpt><trkpt lat="59.4374856446" lon="30.2095952444"><ele>77.34</ele><time>2026-08-30T01:39:42Z</time></trkpt><trkpt lat="59.4374847226" lon="30.2095952444"><ele>76.31</ele><time>2026-08-30T01:39:43Z</time></trkpt><trkpt lat="59.4374662824" lon="30.2096117567"><ele>75.10</ele><time>2026-08-30T01:40:19Z</time></trkpt><trkpt lat="59.4374793582" lon="30.2096276823"><ele>75.00</ele><time>2026-08-30T01:40:44Z</time></trkpt><trkpt lat="59.4374533743" lon="30.2095934842"><ele>75.00</ele><time>2026-08-30T01:41:10Z</time></trkpt><trkpt lat="59.4374801964" lon="30.2095422707"><ele>74.96</ele><time>2026-08-30T01:41:46Z</time></trkpt><trkpt lat="59.4374586549" lon="30.2095741220"><ele>74.61</ele><time>2026-08-30T01:42:15Z</time></trkpt><trkpt lat="59.4374571461" lon="30.2095933165"><ele>74.63</ele><time>2026-08-30T01:42:39Z</time></trkpt><trkpt lat="59.4374282286" lon="30.2096175402"><ele>74.59</ele><time>2026-08-30T01:42:58Z</time></trkpt><trkpt lat="59.4373961259" lon="30.2096155286"><ele>74.81</ele><time>2026-08-30T01:43:18Z</time></trkpt><trkpt lat="59.4373861514" lon="30.2096167859"><ele>74.59</ele><time>2026-08-30T01:43:43Z</time></trkpt><trkpt lat="59.4374031667" lon="30.2096034586"><ele>74.23</ele><time>2026-08-30T01:44:26Z</time></trkpt><trkpt lat="59.4374022447" lon="30.2096140198"><ele>74.37</ele><time>2026-08-30T01:45:36Z</time></trkpt><trkpt lat="59.4374033343" lon="30.2096163668"><ele>73.99</ele><time>2026-08-30T01:47:00Z</time></trkpt><trkpt lat="59.4373838883" lon="30.2096120920"><ele>73.94</ele><time>2026-08-30T01:47:55Z</time></trkpt><trkpt lat="59.4373718183" lon="30.2096198872"><ele>70.76</ele><time>2026-08-30T01:48:00Z</time></trkpt><trkpt lat="59.4373698905" lon="30.2096216474"><ele>74.27</ele><time>2026-08-30T01:48:01Z</time></trkpt><trkpt lat="59.4373682979" lon="30.2096231561"><ele>73.60</ele><time>2026-08-30T01:48:02Z</time></trkpt><trkpt lat="59.4373621792" lon="30.2095989324"><ele>76.74</ele><time>2026-08-30T01:48:04Z</time></trkpt><trkpt lat="59.4373589940" lon="30.2095805760"><ele>76.74</ele><time>2026-08-30T01:48:05Z</time></trkpt><trkpt lat="59.4373495225" lon="30.2095909696"><ele>70.83</ele><time>2026-08-30T01:48:20Z</time></trkpt><trkpt lat="59.4373451639" lon="30.2095912211"><ele>73.91</ele><time>2026-08-30T01:48:21Z</time></trkpt><trkpt lat="59.4372824673" lon="30.2096079849"><ele>73.50</ele><time>2026-08-30T01:48:40Z</time></trkpt><trkpt lat="59.4371956307" lon="30.2096352261"><ele>73.73</ele><time>2026-08-30T01:48:59Z</time></trkpt><trkpt lat="59.4371544756" lon="30.2097225655"><ele>73.65</ele><time>2026-08-30T01:49:21Z</time></trkpt><trkpt lat="59.4371710718" lon="30.2099195402"><ele>73.81</ele><time>2026-08-30T01:49:43Z</time></trkpt><trkpt lat="59.4371763524" lon="30.2101067919"><ele>70.52</ele><time>2026-08-30T01:50:02Z</time></trkpt><trkpt lat="59.4371740893" lon="30.2101200353"><ele>75.04</ele><time>2026-08-30T01:50:03Z</time></trkpt><trkpt lat="59.4371567387" lon="30.2102339454"><ele>73.53</ele><time>2026-08-30T01:50:17Z</time></trkpt><trkpt lat="59.4370735902" lon="30.2104270644"><ele>73.34</ele><time>2026-08-30T01:50:34Z</time></trkpt><trkpt lat="59.4369853288" lon="30.2106618416"><ele>75.09</ele><time>2026-08-30T01:51:00Z</time></trkpt><trkpt lat="59.4369030185" lon="30.2107028291"><ele>73.70</ele><time>2026-08-30T01:51:25Z</time></trkpt><trkpt lat="59.4368892722" lon="30.2106350195"><ele>74.24</ele><time>2026-08-30T01:52:16Z</time></trkpt><trkpt lat="59.4369235542" lon="30.2107841335"><ele>74.45</ele><time>2026-08-30T01:52:47Z</time></trkpt><trkpt lat="59.4369553216" lon="30.2110628318"><ele>74.56</ele><time>2026-08-30T01:53:07Z</time></trkpt><trkpt lat="59.4370078761" lon="30.2111425437"><ele>74.48</ele><time>2026-08-30T01:53:21Z</time></trkpt><trkpt lat="59.4371002447" lon="30.2113270294"><ele>74.50</ele><time>2026-08-30T01:53:41Z</time></trkpt><trkpt lat="59.4371166732" lon="30.2113345731"><ele>74.80</ele><time>2026-08-30T01:53:46Z</time></trkpt><trkpt lat="59.4371848181" lon="30.2115597110"><ele>74.80</ele><time>2026-08-30T01:54:02Z</time></trkpt><trkpt lat="59.4372167531" lon="30.2116323821"><ele>72.46</ele><time>2026-08-30T01:54:14Z</time></trkpt><trkpt lat="59.4372150768" lon="30.2117146924"><ele>74.34</ele><time>2026-08-30T01:54:20Z</time></trkpt><trkpt lat="59.4372135680" lon="30.2117949910"><ele>74.42</ele><time>2026-08-30T01:54:30Z</time></trkpt><trkpt lat="59.4372182619" lon="30.2120741922"><ele>74.71</ele><time>2026-08-30T01:54:47Z</time></trkpt><trkpt lat="59.4372228719" lon="30.2123071253"><ele>74.91</ele><time>2026-08-30T01:54:59Z</time></trkpt><trkpt lat="59.4372021686" lon="30.2124272380"><ele>75.00</ele><time>2026-08-30T01:55:06Z</time></trkpt><trkpt lat="59.4370641187" lon="30.2126162499"><ele>75.15</ele><time>2026-08-30T01:55:25Z</time></trkpt><trkpt lat="59.4369633682" lon="30.2129252907"><ele>75.06</ele><time>2026-08-30T01:55:44Z</time></trkpt><trkpt lat="59.4368939660" lon="30.2130056731"><ele>75.08</ele><time>2026-08-30T01:56:01Z</time></trkpt><trkpt lat="59.4369089697" lon="30.2131835371"><ele>76.28</ele><time>2026-08-30T01:56:17Z</time></trkpt><trkpt lat="59.4369050302" lon="30.2133512590"><ele>74.91</ele><time>2026-08-30T01:56:51Z</time></trkpt><trkpt lat="59.4369120710" lon="30.2134196553"><ele>75.13</ele><time>2026-08-30T01:56:59Z</time></trkpt><trkpt lat="59.4369255658" lon="30.2137376647"><ele>75.15</ele><time>2026-08-30T01:57:16Z</time></trkpt><trkpt lat="59.4368703291" lon="30.2139855176"><ele>75.32</ele><time>2026-08-30T01:57:36Z</time></trkpt><trkpt lat="59.4368021842" lon="30.2142127510"><ele>74.89</ele><time>2026-08-30T01:57:55Z</time></trkpt><trkpt lat="59.4368035253" lon="30.2142597735"><ele>74.78</ele><time>2026-08-30T01:58:01Z</time></trkpt><trkpt lat="59.4368061237" lon="30.2143078856"><ele>75.09</ele><time>2026-08-30T01:58:34Z</time></trkpt><trkpt lat="59.4368122425" lon="30.2145727538"><ele>75.47</ele><time>2026-08-30T01:58:55Z</time></trkpt><trkpt lat="59.4367746077" lon="30.2149147354"><ele>75.59</ele><time>2026-08-30T01:59:15Z</time></trkpt><trkpt lat="59.4367310219" lon="30.2151846327"><ele>75.88</ele><time>2026-08-30T01:59:33Z</time></trkpt><trkpt lat="59.4367344584" lon="30.2153381892"><ele>75.80</ele><time>2026-08-30T01:59:46Z</time></trkpt><trkpt lat="59.4367060438" lon="30.2156358305"><ele>75.88</ele><time>2026-08-30T02:00:03Z</time></trkpt><trkpt lat="59.4366933871" lon="30.2156674303"><ele>76.01</ele><time>2026-08-30T02:00:05Z</time></trkpt><trkpt lat="59.4367102347" lon="30.2158494852"><ele>76.06</ele><time>2026-08-30T02:00:20Z</time></trkpt><trkpt lat="59.4367273338" lon="30.2161731943"><ele>76.18</ele><time>2026-08-30T02:00:37Z</time></trkpt><trkpt lat="59.4367486238" lon="30.2164579276"><ele>76.39</ele><time>2026-08-30T02:00:56Z</time></trkpt><trkpt lat="59.4367414992" lon="30.2165758610"><ele>76.25</ele><time>2026-08-30T02:01:47Z</time></trkpt><trkpt lat="59.4367848337" lon="30.2167757694"><ele>76.36</ele><time>2026-08-30T02:01:58Z</time></trkpt><trkpt lat="59.4367838278" lon="30.2170526236"><ele>76.20</ele><time>2026-08-30T02:02:15Z</time></trkpt><trkpt lat="59.4366674870" lon="30.2172871493"><ele>76.47</ele><time>2026-08-30T02:02:30Z</time></trkpt><trkpt lat="59.4366619550" lon="30.2173310705"><ele>76.46</ele><time>2026-08-30T02:02:32Z</time></trkpt><trkpt lat="59.4366110768" lon="30.2175697871"><ele>76.49</ele><time>2026-08-30T02:02:48Z</time></trkpt><trkpt lat="59.4365972467" lon="30.2178442106"><ele>76.15</ele><time>2026-08-30T02:03:04Z</time></trkpt><trkpt lat="59.4364912994" lon="30.2181523293"><ele>76.27</ele><time>2026-08-30T02:03:20Z</time></trkpt><trkpt lat="59.4364969991" lon="30.2183172014"><ele>76.17</ele><time>2026-08-30T02:03:38Z</time></trkpt><trkpt lat="59.4364602864" lon="30.2185830753"><ele>76.06</ele><time>2026-08-30T02:03:53Z</time></trkpt><trkpt lat="59.4364784751" lon="30.2188926190"><ele>76.21</ele><time>2026-08-30T02:04:08Z</time></trkpt><trkpt lat="59.4365425967" lon="30.2191276476"><ele>76.35</ele><time>2026-08-30T02:04:24Z</time></trkpt><trkpt lat="59.4365490507" lon="30.2192024980"><ele>76.34</ele><time>2026-08-30T02:04:28Z</time></trkpt><trkpt lat="59.4365771301" lon="30.2194056753"><ele>76.52</ele><time>2026-08-30T02:04:36Z</time></trkpt><trkpt lat="59.4365603663" lon="30.2197181527"><ele>76.45</ele><time>2026-08-30T02:04:53Z</time></trkpt><trkpt lat="59.4365844224" lon="30.2200830169"><ele>76.37</ele><time>2026-08-30T02:05:11Z</time></trkpt><trkpt lat="59.4365896191" lon="30.2201272734"><ele>76.46</ele><time>2026-08-30T02:05:13Z</time></trkpt><trkpt lat="59.4366309419" lon="30.2203691751"><ele>76.52</ele><time>2026-08-30T02:05:28Z</time></trkpt><trkpt lat="59.4366311934" lon="30.2206239849"><ele>76.54</ele><time>2026-08-30T02:05:43Z</time></trkpt><trkpt lat="59.4367197901" lon="30.2206844185"><ele>76.41</ele><time>2026-08-30T02:06:01Z</time></trkpt><trkpt lat="59.4367686566" lon="30.2207001764"><ele>76.41</ele><time>2026-08-30T02:06:09Z</time></trkpt><trkpt lat="59.4369182736" lon="30.2206585184"><ele>76.04</ele><time>2026-08-30T02:06:25Z</time></trkpt><trkpt lat="59.4369318523" lon="30.2206815686"><ele>77.13</ele><time>2026-08-30T02:06:27Z</time></trkpt><trkpt lat="59.4370379671" lon="30.2209433354"><ele>76.35</ele><time>2026-08-30T02:06:46Z</time></trkpt><trkpt lat="59.4370715786" lon="30.2210758533"><ele>76.29</ele><time>2026-08-30T02:06:52Z</time></trkpt><trkpt lat="59.4371771906" lon="30.2213195991"><ele>76.53</ele><time>2026-08-30T02:07:08Z</time></trkpt><trkpt lat="59.4372632727" lon="30.2214252949"><ele>76.76</ele><time>2026-08-30T02:07:25Z</time></trkpt><trkpt lat="59.4373737462" lon="30.2217754908"><ele>76.67</ele><time>2026-08-30T02:07:43Z</time></trkpt><trkpt lat="59.4373567309" lon="30.2219418716"><ele>76.60</ele><time>2026-08-30T02:08:02Z</time></trkpt><trkpt lat="59.4373695552" lon="30.2220163867"><ele>76.64</ele><time>2026-08-30T02:08:05Z</time></trkpt><trkpt lat="59.4374001492" lon="30.2223358210"><ele>76.72</ele><time>2026-08-30T02:08:20Z</time></trkpt><trkpt lat="59.4374657795" lon="30.2226465382"><ele>76.74</ele><time>2026-08-30T02:08:35Z</time></trkpt><trkpt lat="59.4374718983" lon="30.2227077261"><ele>76.84</ele><time>2026-08-30T02:08:40Z</time></trkpt><trkpt lat="59.4374661986" lon="30.2229495440"><ele>76.92</ele><time>2026-08-30T02:08:56Z</time></trkpt><trkpt lat="59.4375319965" lon="30.2230315190"><ele>76.88</ele><time>2026-08-30T02:09:13Z</time></trkpt><trkpt lat="59.4375519454" lon="30.2231923677"><ele>76.71</ele><time>2026-08-30T02:09:28Z</time></trkpt><trkpt lat="59.4375781808" lon="30.2235008217"><ele>77.05</ele><time>2026-08-30T02:09:49Z</time></trkpt><trkpt lat="59.4374487642" lon="30.2237574756"><ele>77.12</ele><time>2026-08-30T02:10:09Z</time></trkpt><trkpt lat="59.4374334253" lon="30.2238635905"><ele>76.81</ele><time>2026-08-30T02:10:24Z</time></trkpt><trkpt lat="59.4373479299" lon="30.2241463959"><ele>76.87</ele><time>2026-08-30T02:10:40Z</time></trkpt><trkpt lat="59.4372980576" lon="30.2243627328"><ele>76.71</ele><time>2026-08-30T02:10:53Z</time></trkpt><trkpt lat="59.4372091256" lon="30.2245605458"><ele>76.95</ele><time>2026-08-30T02:11:07Z</time></trkpt><trkpt lat="59.4370462652" lon="30.2247531619"><ele>77.11</ele><time>2026-08-30T02:11:25Z</time></trkpt><trkpt lat="59.4369735103" lon="30.2248495538"><ele>76.89</ele><time>2026-08-30T02:11:33Z</time></trkpt><trkpt lat="59.4369644579" lon="30.2250892762"><ele>76.92</ele><time>2026-08-30T02:11:48Z</time></trkpt><trkpt lat="59.4369348697" lon="30.2254085429"><ele>76.96</ele><time>2026-08-30T02:12:05Z</time></trkpt><trkpt lat="59.4368431717" lon="30.2257310785"><ele>77.07</ele><time>2026-08-30T02:12:22Z</time></trkpt><trkpt lat="59.4367582630" lon="30.2259015664"><ele>77.15</ele><time>2026-08-30T02:12:33Z</time></trkpt><trkpt lat="59.4367432594" lon="30.2261196636"><ele>77.09</ele><time>2026-08-30T02:12:45Z</time></trkpt><trkpt lat="59.4367226399" lon="30.2262349986"><ele>77.13</ele><time>2026-08-30T02:12:50Z</time></trkpt><trkpt lat="59.4366644695" lon="30.2266167942"><ele>77.16</ele><time>2026-08-30T02:13:08Z</time></trkpt><trkpt lat="59.4365687482" lon="30.2268660720"><ele>76.92</ele><time>2026-08-30T02:13:24Z</time></trkpt><trkpt lat="59.4364916347" lon="30.2271435969"><ele>77.20</ele><time>2026-08-30T02:13:39Z</time></trkpt><trkpt lat="59.4364592806" lon="30.2274353709"><ele>77.22</ele><time>2026-08-30T02:13:55Z</time></trkpt><trkpt lat="59.4363967516" lon="30.2276890911"><ele>77.35</ele><time>2026-08-30T02:14:09Z</time></trkpt><trkpt lat="59.4363057241" lon="30.2279761713"><ele>77.39</ele><time>2026-08-30T02:14:25Z</time></trkpt><trkpt lat="59.4362531696" lon="30.2282517683"><ele>77.32</ele><time>2026-08-30T02:14:40Z</time></trkpt><trkpt lat="59.4362573605" lon="30.2282836195"><ele>77.34</ele><time>2026-08-30T02:14:43Z</time></trkpt><trkpt lat="59.4363233261" lon="30.2285283711"><ele>77.14</ele><time>2026-08-30T02:15:00Z</time></trkpt><trkpt lat="59.4363463763" lon="30.2287072409"><ele>77.16</ele><time>2026-08-30T02:15:10Z</time></trkpt><trkpt lat="59.4363277685" lon="30.2289209794"><ele>77.26</ele><time>2026-08-30T02:15:21Z</time></trkpt><trkpt lat="59.4363196380" lon="30.2291692514"><ele>77.24</ele><time>2026-08-30T02:15:36Z</time></trkpt><trkpt lat="59.4363738690" lon="30.2293397393"><ele>77.22</ele><time>2026-08-30T02:15:49Z</time></trkpt><trkpt lat="59.4363988470" lon="30.2294250671"><ele>77.38</ele><time>2026-08-30T02:15:56Z</time></trkpt><trkpt lat="59.4363686722" lon="30.2294945531"><ele>77.21</ele><time>2026-08-30T02:16:04Z</time></trkpt><trkpt lat="59.4363413472" lon="30.2297747601"><ele>77.28</ele><time>2026-08-30T02:16:17Z</time></trkpt><trkpt lat="59.4362769742" lon="30.2300079446"><ele>76.98</ele><time>2026-08-30T02:16:32Z</time></trkpt><trkpt lat="59.4361759722" lon="30.2302953601"><ele>77.26</ele><time>2026-08-30T02:16:50Z</time></trkpt><trkpt lat="59.4361551851" lon="30.2304683626"><ele>77.12</ele><time>2026-08-30T02:16:59Z</time></trkpt><trkpt lat="59.4361287821" lon="30.2307302970"><ele>77.12</ele><time>2026-08-30T02:17:12Z</time></trkpt><trkpt lat="59.4361209869" lon="30.2308353223"><ele>77.05</ele><time>2026-08-30T02:17:31Z</time></trkpt><trkpt lat="59.4361011218" lon="30.2309632301"><ele>76.96</ele><time>2026-08-30T02:17:39Z</time></trkpt><trkpt lat="59.4360196497" lon="30.2312375698"><ele>77.02</ele><time>2026-08-30T02:17:54Z</time></trkpt><trkpt lat="59.4359416980" lon="30.2314659767"><ele>76.99</ele><time>2026-08-30T02:18:07Z</time></trkpt><trkpt lat="59.4358632434" lon="30.2314793877"><ele>76.91</ele><time>2026-08-30T02:18:17Z</time></trkpt><trkpt lat="59.4357942604" lon="30.2314761188"><ele>76.71</ele><time>2026-08-30T02:18:36Z</time></trkpt><trkpt lat="59.4357783347" lon="30.2315028571"><ele>76.10</ele><time>2026-08-30T02:19:16Z</time></trkpt><trkpt lat="59.4357818551" lon="30.2314858418"><ele>76.32</ele><time>2026-08-30T02:21:10Z</time></trkpt><trkpt lat="59.4357988704" lon="30.2314829919"><ele>76.34</ele><time>2026-08-30T02:23:19Z</time></trkpt><trkpt lat="59.4357976969" lon="30.2315743547"><ele>76.38</ele><time>2026-08-30T02:23:54Z</time></trkpt><trkpt lat="59.4357912429" lon="30.2316403203"><ele>76.07</ele><time>2026-08-30T02:24:32Z</time></trkpt><trkpt lat="59.4357865490" lon="30.2316370513"><ele>78.06</ele><time>2026-08-30T02:25:15Z</time></trkpt><trkpt lat="59.4357905723" lon="30.2316515520"><ele>75.69</ele><time>2026-08-30T02:25:18Z</time></trkpt><trkpt lat="59.4358065818" lon="30.2316228859"><ele>76.10</ele><time>2026-08-30T02:26:12Z</time></trkpt><trkpt lat="59.4358172268" lon="30.2316299267"><ele>75.97</ele><time>2026-08-30T02:27:57Z</time></trkpt><trkpt lat="59.4358113594" lon="30.2316294238"><ele>75.81</ele><time>2026-08-30T02:29:12Z</time></trkpt><trkpt lat="59.4358235970" lon="30.2316366322"><ele>75.30</ele><time>2026-08-30T02:31:18Z</time></trkpt><trkpt lat="59.4358159695" lon="30.2316683996"><ele>75.00</ele><time>2026-08-30T02:32:52Z</time></trkpt><trkpt lat="59.4358025584" lon="30.2316658851"><ele>75.06</ele><time>2026-08-30T02:34:53Z</time></trkpt><trkpt lat="59.4358007982" lon="30.2316599339"><ele>75.42</ele><time>2026-08-30T02:35:53Z</time></trkpt><trkpt lat="59.4357964396" lon="30.2316455171"><ele>75.67</ele><time>2026-08-30T02:37:21Z</time></trkpt><trkpt lat="59.4357989542" lon="30.2316632867"><ele>76.14</ele><time>2026-08-30T02:38:31Z</time></trkpt><trkpt lat="59.4357979484" lon="30.2316596825"><ele>76.69</ele><time>2026-08-30T02:39:53Z</time></trkpt><trkpt lat="59.4358286262" lon="30.2316032723"><ele>76.89</ele><time>2026-08-30T02:41:32Z</time></trkpt><trkpt lat="59.4358138740" lon="30.2316173539"><ele>77.96</ele><time>2026-08-30T02:42:12Z</time></trkpt><trkpt lat="59.4357246906" lon="30.2315289248"><ele>77.70</ele><time>2026-08-30T02:42:30Z</time></trkpt><trkpt lat="59.4356220961" lon="30.2315809764"><ele>77.67</ele><time>2026-08-30T02:42:42Z</time></trkpt><trkpt lat="59.4354832917" lon="30.2315780427"><ele>78.06</ele><time>2026-08-30T02:42:56Z</time></trkpt><trkpt lat="59.4353208505" lon="30.2315904479"><ele>78.69</ele><time>2026-08-30T02:43:14Z</time></trkpt><trkpt lat="59.4354968704" lon="30.2315401565"><ele>77.32</ele><time>2026-08-30T02:43:38Z</time></trkpt><trkpt lat="59.4355617464" lon="30.2315023541"><ele>77.42</ele><time>2026-08-30T02:43:42Z</time></trkpt><trkpt lat="59.4356048293" lon="30.2314961515"><ele>76.98</ele><time>2026-08-30T02:43:46Z</time></trkpt><trkpt lat="59.4356552884" lon="30.2314464469"><ele>77.37</ele><time>2026-08-30T02:43:51Z</time></trkpt><trkpt lat="59.4356804341" lon="30.2314280067"><ele>77.30</ele><time>2026-08-30T02:43:54Z</time></trkpt><trkpt lat="59.4357619900" lon="30.2314908709"><ele>77.34</ele><time>2026-08-30T02:44:01Z</time></trkpt><trkpt lat="59.4358531851" lon="30.2318128198"><ele>76.76</ele><time>2026-08-30T02:44:17Z</time></trkpt><trkpt lat="59.4358840305" lon="30.2320522908"><ele>76.73</ele><time>2026-08-30T02:44:28Z</time></trkpt><trkpt lat="59.4358811807" lon="30.2322410513"><ele>77.64</ele><time>2026-08-30T02:44:35Z</time></trkpt><trkpt lat="59.4358858746" lon="30.2323556319"><ele>77.56</ele><time>2026-08-30T02:44:40Z</time></trkpt><trkpt lat="59.4358860422" lon="30.2325158939"><ele>77.79</ele><time>2026-08-30T02:44:47Z</time></trkpt><trkpt lat="59.4358885568" lon="30.2325625811"><ele>77.84</ele><time>2026-08-30T02:44:49Z</time></trkpt><trkpt lat="59.4358854555" lon="30.2326546982"><ele>77.91</ele><time>2026-08-30T02:44:53Z</time></trkpt><trkpt lat="59.4359058235" lon="30.2328628208"><ele>78.02</ele><time>2026-08-30T02:45:02Z</time></trkpt><trkpt lat="59.4359186478" lon="30.2330628969"><ele>78.00</ele><time>2026-08-30T02:45:10Z</time></trkpt><trkpt lat="59.4359335676" lon="30.2332698461"><ele>77.86</ele><time>2026-08-30T02:45:19Z</time></trkpt><trkpt lat="59.4359334838" lon="30.2335188724"><ele>77.96</ele><time>2026-08-30T02:45:30Z</time></trkpt><trkpt lat="59.4359340705" lon="30.2338186931"><ele>77.55</ele><time>2026-08-30T02:45:44Z</time></trkpt><trkpt lat="59.4359322265" lon="30.2338683978"><ele>77.80</ele><time>2026-08-30T02:45:47Z</time></trkpt><trkpt lat="59.4359417818" lon="30.2339578327"><ele>77.62</ele><time>2026-08-30T02:45:51Z</time></trkpt><trkpt lat="59.4359785784" lon="30.2343413886"><ele>77.75</ele><time>2026-08-30T02:46:08Z</time></trkpt><trkpt lat="59.4359794166" lon="30.2343696356"><ele>77.72</ele><time>2026-08-30T02:46:09Z</time></trkpt><trkpt lat="59.4359985273" lon="30.2347589750"><ele>77.67</ele><time>2026-08-30T02:46:25Z</time></trkpt><trkpt lat="59.4360011257" lon="30.2351485658"><ele>77.58</ele><time>2026-08-30T02:46:41Z</time></trkpt><trkpt lat="59.4360267743" lon="30.2354961634"><ele>77.45</ele><time>2026-08-30T02:46:55Z</time></trkpt><trkpt lat="59.4360289536" lon="30.2356751170"><ele>77.24</ele><time>2026-08-30T02:47:02Z</time></trkpt><trkpt lat="59.4360712823" lon="30.2360910270"><ele>77.02</ele><time>2026-08-30T02:47:18Z</time></trkpt><trkpt lat="59.4360908959" lon="30.2365008183"><ele>76.65</ele><time>2026-08-30T02:47:34Z</time></trkpt><trkpt lat="59.4361032173" lon="30.2369319834"><ele>76.50</ele><time>2026-08-30T02:47:50Z</time></trkpt><trkpt lat="59.4360979367" lon="30.2372968476"><ele>76.78</ele><time>2026-08-30T02:48:04Z</time></trkpt><trkpt lat="59.4361233339" lon="30.2375548426"><ele>76.60</ele><time>2026-08-30T02:48:14Z</time></trkpt><trkpt lat="59.4361360744" lon="30.2376889531"><ele>76.62</ele><time>2026-08-30T02:48:19Z</time></trkpt><trkpt lat="59.4361406844" lon="30.2379151806"><ele>76.75</ele><time>2026-08-30T02:48:29Z</time></trkpt><trkpt lat="59.4361386728" lon="30.2379805595"><ele>76.73</ele><time>2026-08-30T02:48:32Z</time></trkpt><trkpt lat="59.4361441210" lon="30.2382206172"><ele>76.76</ele><time>2026-08-30T02:48:41Z</time></trkpt><trkpt lat="59.4361499883" lon="30.2383249719"><ele>76.67</ele><time>2026-08-30T02:48:45Z</time></trkpt><trkpt lat="59.4361637346" lon="30.2384290751"><ele>76.66</ele><time>2026-08-30T02:48:49Z</time></trkpt><trkpt lat="59.4361629803" lon="30.2386201825"><ele>76.71</ele><time>2026-08-30T02:48:57Z</time></trkpt><trkpt lat="59.4361636508" lon="30.2388164867"><ele>76.71</ele><time>2026-08-30T02:49:05Z</time></trkpt><trkpt lat="59.4361627288" lon="30.2390401997"><ele>76.60</ele><time>2026-08-30T02:49:14Z</time></trkpt><trkpt lat="59.4361642376" lon="30.2391296346"><ele>76.64</ele><time>2026-08-30T02:49:17Z</time></trkpt><trkpt lat="59.4361702725" lon="30.2392957639"><ele>76.51</ele><time>2026-08-30T02:49:24Z</time></trkpt><trkpt lat="59.4361725356" lon="30.2393723745"><ele>76.44</ele><time>2026-08-30T02:49:27Z</time></trkpt><trkpt lat="59.4361779839" lon="30.2395332232"><ele>76.33</ele><time>2026-08-30T02:49:33Z</time></trkpt><trkpt lat="59.4361866172" lon="30.2396061458"><ele>76.21</ele><time>2026-08-30T02:49:36Z</time></trkpt><trkpt lat="59.4361974299" lon="30.2397916373"><ele>76.20</ele><time>2026-08-30T02:49:43Z</time></trkpt><trkpt lat="59.4362015370" lon="30.2398657333"><ele>76.07</ele><time>2026-08-30T02:49:46Z</time></trkpt><trkpt lat="59.4362062309" lon="30.2399136778"><ele>75.97</ele><time>2026-08-30T02:49:48Z</time></trkpt><trkpt lat="59.4362236653" lon="30.2401791327"><ele>75.77</ele><time>2026-08-30T02:49:59Z</time></trkpt><trkpt lat="59.4362374954" lon="30.2403833997"><ele>76.04</ele><time>2026-08-30T02:50:08Z</time></trkpt><trkpt lat="59.4362306222" lon="30.2405159175"><ele>76.10</ele><time>2026-08-30T02:50:14Z</time></trkpt><trkpt lat="59.4362477213" lon="30.2407370321"><ele>75.97</ele><time>2026-08-30T02:50:22Z</time></trkpt><trkpt lat="59.4362582825" lon="30.2408663649"><ele>76.02</ele><time>2026-08-30T02:50:27Z</time></trkpt><trkpt lat="59.4362638984" lon="30.2412411198"><ele>75.79</ele><time>2026-08-30T02:50:42Z</time></trkpt><trkpt lat="59.4362638984" lon="30.2412959374"><ele>75.92</ele><time>2026-08-30T02:50:45Z</time></trkpt><trkpt lat="59.4362739567" lon="30.2414219175"><ele>75.86</ele><time>2026-08-30T02:50:50Z</time></trkpt><trkpt lat="59.4362707715" lon="30.2415339835"><ele>75.88</ele><time>2026-08-30T02:50:54Z</time></trkpt><trkpt lat="59.4362856913" lon="30.2416490670"><ele>75.72</ele><time>2026-08-30T02:50:58Z</time></trkpt><trkpt lat="59.4363020360" lon="30.2420570981"><ele>75.84</ele><time>2026-08-30T02:51:14Z</time></trkpt><trkpt lat="59.4363032933" lon="30.2421343792"><ele>75.80</ele><time>2026-08-30T02:51:17Z</time></trkpt><trkpt lat="59.4363008626" lon="30.2422525641"><ele>75.96</ele><time>2026-08-30T02:51:22Z</time></trkpt><trkpt lat="59.4363032933" lon="30.2423363831"><ele>75.95</ele><time>2026-08-30T02:51:25Z</time></trkpt><trkpt lat="59.4363285229" lon="30.2427633572"><ele>75.70</ele><time>2026-08-30T02:51:42Z</time></trkpt><trkpt lat="59.4363336358" lon="30.2428084519"><ele>76.01</ele><time>2026-08-30T02:51:44Z</time></trkpt><trkpt lat="59.4363344740" lon="30.2428518701"><ele>75.87</ele><time>2026-08-30T02:51:46Z</time></trkpt><trkpt lat="59.4363295287" lon="30.2429182548"><ele>75.93</ele><time>2026-08-30T02:51:49Z</time></trkpt><trkpt lat="59.4363358989" lon="30.2430955321"><ele>75.90</ele><time>2026-08-30T02:51:56Z</time></trkpt><trkpt lat="59.4363517407" lon="30.2434708737"><ele>75.51</ele><time>2026-08-30T02:52:10Z</time></trkpt><trkpt lat="59.4363738690" lon="30.2436226700"><ele>75.63</ele><time>2026-08-30T02:52:15Z</time></trkpt><trkpt lat="59.4363716897" lon="30.2436689381"><ele>75.66</ele><time>2026-08-30T02:52:17Z</time></trkpt><trkpt lat="59.4363691751" lon="30.2437371667"><ele>75.73</ele><time>2026-08-30T02:52:20Z</time></trkpt><trkpt lat="59.4363843463" lon="30.2438535914"><ele>75.52</ele><time>2026-08-30T02:52:25Z</time></trkpt><trkpt lat="59.4363870285" lon="30.2439822536"><ele>75.49</ele><time>2026-08-30T02:52:30Z</time></trkpt><trkpt lat="59.4363853522" lon="30.2441598661"><ele>75.40</ele><time>2026-08-30T02:52:37Z</time></trkpt><trkpt lat="59.4364044629" lon="30.2444821503"><ele>75.39</ele><time>2026-08-30T02:52:50Z</time></trkpt><trkpt lat="59.4364106655" lon="30.2448485233"><ele>75.54</ele><time>2026-08-30T02:53:05Z</time></trkpt><trkpt lat="59.4364104979" lon="30.2448755968"><ele>75.40</ele><time>2026-08-30T02:53:06Z</time></trkpt><trkpt lat="59.4364175387" lon="30.2450761758"><ele>75.46</ele><time>2026-08-30T02:53:14Z</time></trkpt><trkpt lat="59.4364213943" lon="30.2451640181"><ele>75.45</ele><time>2026-08-30T02:53:18Z</time></trkpt><trkpt lat="59.4364175387" lon="30.2453330811"><ele>75.35</ele><time>2026-08-30T02:53:25Z</time></trkpt><trkpt lat="59.4364356436" lon="30.2455973625"><ele>75.28</ele><time>2026-08-30T02:53:36Z</time></trkpt><trkpt lat="59.4364646450" lon="30.2459076606"><ele>75.18</ele><time>2026-08-30T02:53:49Z</time></trkpt><trkpt lat="59.4364736974" lon="30.2462525759"><ele>75.15</ele><time>2026-08-30T02:54:02Z</time></trkpt><trkpt lat="59.4364748709" lon="30.2463794779"><ele>75.20</ele><time>2026-08-30T02:54:08Z</time></trkpt><trkpt lat="59.4364760444" lon="30.2466516383"><ele>75.22</ele><time>2026-08-30T02:54:19Z</time></trkpt><trkpt lat="59.4364758767" lon="30.2467277460"><ele>75.10</ele><time>2026-08-30T02:54:22Z</time></trkpt><trkpt lat="59.4364992622" lon="30.2468921989"><ele>75.07</ele><time>2026-08-30T02:54:29Z</time></trkpt><trkpt lat="59.4365231507" lon="30.2472739946"><ele>75.09</ele><time>2026-08-30T02:54:44Z</time></trkpt><trkpt lat="59.4365315326" lon="30.2473722305"><ele>74.96</ele><time>2026-08-30T02:54:48Z</time></trkpt><trkpt lat="59.4365372322" lon="30.2476800978"><ele>74.38</ele><time>2026-08-30T02:55:00Z</time></trkpt><trkpt lat="59.4365393277" lon="30.2480120212"><ele>74.26</ele><time>2026-08-30T02:55:13Z</time></trkpt><trkpt lat="59.4365626294" lon="30.2482964192"><ele>74.22</ele><time>2026-08-30T02:55:25Z</time></trkpt><trkpt lat="59.4365786389" lon="30.2484195493"><ele>73.95</ele><time>2026-08-30T02:55:30Z</time></trkpt><trkpt lat="59.4365767948" lon="30.2486894466"><ele>73.77</ele><time>2026-08-30T02:55:41Z</time></trkpt><trkpt lat="59.4365919661" lon="30.2489330247"><ele>73.56</ele><time>2026-08-30T02:55:51Z</time></trkpt><trkpt lat="59.4365830813" lon="30.2490637824"><ele>73.59</ele><time>2026-08-30T02:55:56Z</time></trkpt><trkpt lat="59.4365873560" lon="30.2491659578"><ele>73.50</ele><time>2026-08-30T02:56:00Z</time></trkpt><trkpt lat="59.4365956541" lon="30.2495097835"><ele>73.46</ele><time>2026-08-30T02:56:14Z</time></trkpt><trkpt lat="59.4366066344" lon="30.2498868853"><ele>73.24</ele><time>2026-08-30T02:56:29Z</time></trkpt><trkpt lat="59.4366094843" lon="30.2499695309"><ele>73.22</ele><time>2026-08-30T02:56:32Z</time></trkpt><trkpt lat="59.4366256613" lon="30.2501466405"><ele>73.27</ele><time>2026-08-30T02:56:39Z</time></trkpt><trkpt lat="59.4366276730" lon="30.2501943335"><ele>73.17</ele><time>2026-08-30T02:56:41Z</time></trkpt><trkpt lat="59.4366307743" lon="30.2502421942"><ele>73.22</ele><time>2026-08-30T02:56:43Z</time></trkpt><trkpt lat="59.4366509747" lon="30.2504945733"><ele>73.09</ele><time>2026-08-30T02:56:54Z</time></trkpt><trkpt lat="59.4366549980" lon="30.2507320326"><ele>73.08</ele><time>2026-08-30T02:57:03Z</time></trkpt><trkpt lat="59.4366509747" lon="30.2507839166"><ele>73.03</ele><time>2026-08-30T02:57:05Z</time></trkpt><trkpt lat="59.4366417546" lon="30.2509540692"><ele>72.94</ele><time>2026-08-30T02:57:12Z</time></trkpt><trkpt lat="59.4366471190" lon="30.2510771994"><ele>72.97</ele><time>2026-08-30T02:57:17Z</time></trkpt><trkpt lat="59.4366617873" lon="30.2514646947"><ele>72.94</ele><time>2026-08-30T02:57:33Z</time></trkpt><trkpt lat="59.4366630446" lon="30.2515701391"><ele>72.87</ele><time>2026-08-30T02:57:37Z</time></trkpt><trkpt lat="59.4366802275" lon="30.2516994718"><ele>72.59</ele><time>2026-08-30T02:57:42Z</time></trkpt><trkpt lat="59.4366855919" lon="30.2520359214"><ele>72.39</ele><time>2026-08-30T02:57:56Z</time></trkpt><trkpt lat="59.4366843347" lon="30.2521112747"><ele>72.28</ele><time>2026-08-30T02:57:59Z</time></trkpt><trkpt lat="59.4366716780" lon="30.2523820940"><ele>72.34</ele><time>2026-08-30T02:58:12Z</time></trkpt><trkpt lat="59.4366758689" lon="30.2524877898"><ele>72.23</ele><time>2026-08-30T02:58:16Z</time></trkpt><trkpt lat="59.4366969913" lon="30.2527933940"><ele>72.07</ele><time>2026-08-30T02:58:28Z</time></trkpt><trkpt lat="59.4366933871" lon="30.2528623771"><ele>72.20</ele><time>2026-08-30T02:58:31Z</time></trkpt><trkpt lat="59.4367004279" lon="30.2529984992"><ele>72.00</ele><time>2026-08-30T02:58:36Z</time></trkpt><trkpt lat="59.4367246516" lon="30.2534057759"><ele>71.99</ele><time>2026-08-30T02:58:53Z</time></trkpt><trkpt lat="59.4367285911" lon="30.2534345258"><ele>72.03</ele><time>2026-08-30T02:58:54Z</time></trkpt><trkpt lat="59.4367343746" lon="30.2535059396"><ele>72.02</ele><time>2026-08-30T02:58:57Z</time></trkpt><trkpt lat="59.4367425889" lon="30.2538218535"><ele>71.90</ele><time>2026-08-30T02:59:09Z</time></trkpt><trkpt lat="59.4367519766" lon="30.2539317403"><ele>71.69</ele><time>2026-08-30T02:59:13Z</time></trkpt><trkpt lat="59.4367660582" lon="30.2542134561"><ele>71.98</ele><time>2026-08-30T02:59:25Z</time></trkpt><trkpt lat="59.4367682375" lon="30.2544329781"><ele>72.27</ele><time>2026-08-30T02:59:34Z</time></trkpt><trkpt lat="59.4368004240" lon="30.2546722814"><ele>72.44</ele><time>2026-08-30T02:59:44Z</time></trkpt><trkpt lat="59.4368014298" lon="30.2547238301"><ele>72.45</ele><time>2026-08-30T02:59:46Z</time></trkpt><trkpt lat="59.4368115719" lon="30.2550987527"><ele>71.02</ele><time>2026-08-30T03:00:01Z</time></trkpt><trkpt lat="59.4368172716" lon="30.2551232278"><ele>71.01</ele><time>2026-08-30T03:00:07Z</time></trkpt><trkpt lat="59.4369390607" lon="30.2550522331"><ele>71.29</ele><time>2026-08-30T03:00:20Z</time></trkpt><trkpt lat="59.4369465206" lon="30.2550487965"><ele>71.28</ele><time>2026-08-30T03:00:21Z</time></trkpt><trkpt lat="59.4369760249" lon="30.2550055459"><ele>71.55</ele><time>2026-08-30T03:00:24Z</time></trkpt><trkpt lat="59.4372019172" lon="30.2550465334"><ele>71.67</ele><time>2026-08-30T03:00:40Z</time></trkpt><trkpt lat="59.4373994786" lon="30.2551252395"><ele>71.04</ele><time>2026-08-30T03:00:56Z</time></trkpt><trkpt lat="59.4374571461" lon="30.2551585995"><ele>71.59</ele><time>2026-08-30T03:01:01Z</time></trkpt><trkpt lat="59.4376329985" lon="30.2552141715"><ele>71.55</ele><time>2026-08-30T03:01:16Z</time></trkpt><trkpt lat="59.4377994630" lon="30.2552839927"><ele>71.18</ele><time>2026-08-30T03:01:31Z</time></trkpt><trkpt lat="59.4378728885" lon="30.2553155925"><ele>71.95</ele><time>2026-08-30T03:01:37Z</time></trkpt><trkpt lat="59.4379286282" lon="30.2553645428"><ele>71.95</ele><time>2026-08-30T03:01:42Z</time></trkpt><trkpt lat="59.4380101841" lon="30.2553886827"><ele>72.00</ele><time>2026-08-30T03:01:48Z</time></trkpt><trkpt lat="59.4381136168" lon="30.2554809675"><ele>72.03</ele><time>2026-08-30T03:01:57Z</time></trkpt><trkpt lat="59.4381496590" lon="30.2555499505"><ele>71.99</ele><time>2026-08-30T03:02:01Z</time></trkpt><trkpt lat="59.4381787442" lon="30.2556169219"><ele>71.94</ele><time>2026-08-30T03:02:04Z</time></trkpt><trkpt lat="59.4383461308" lon="30.2557334304"><ele>72.24</ele><time>2026-08-30T03:02:21Z</time></trkpt><trkpt lat="59.4384022895" lon="30.2557322569"><ele>72.20</ele><time>2026-08-30T03:02:25Z</time></trkpt><trkpt lat="59.4386635534" lon="30.2558596618"><ele>72.11</ele><time>2026-08-30T03:02:46Z</time></trkpt><trkpt lat="59.4387569278" lon="30.2559275553"><ele>72.07</ele><time>2026-08-30T03:02:53Z</time></trkpt><trkpt lat="59.4388301857" lon="30.2559672855"><ele>71.82</ele><time>2026-08-30T03:02:59Z</time></trkpt><trkpt lat="59.4389057904" lon="30.2559980471"><ele>71.41</ele><time>2026-08-30T03:03:07Z</time></trkpt><trkpt lat="59.4389840774" lon="30.2559570596"><ele>71.59</ele><time>2026-08-30T03:03:14Z</time></trkpt><trkpt lat="59.4390425831" lon="30.2559471689"><ele>71.57</ele><time>2026-08-30T03:03:18Z</time></trkpt><trkpt lat="59.4392415695" lon="30.2558842208"><ele>71.37</ele><time>2026-08-30T03:03:35Z</time></trkpt><trkpt lat="59.4394520391" lon="30.2558819577"><ele>71.35</ele><time>2026-08-30T03:03:52Z</time></trkpt><trkpt lat="59.4395161606" lon="30.2559406310"><ele>71.15</ele><time>2026-08-30T03:03:57Z</time></trkpt><trkpt lat="59.4397055916" lon="30.2560927626"><ele>70.85</ele><time>2026-08-30T03:04:13Z</time></trkpt><trkpt lat="59.4398364332" lon="30.2563988697"><ele>70.73</ele><time>2026-08-30T03:04:30Z</time></trkpt><trkpt lat="59.4399472419" lon="30.2566704433"><ele>71.07</ele><time>2026-08-30T03:04:46Z</time></trkpt><trkpt lat="59.4399833679" lon="30.2567099221"><ele>71.01</ele><time>2026-08-30T03:04:50Z</time></trkpt><trkpt lat="59.4401379302" lon="30.2569089923"><ele>71.07</ele><time>2026-08-30T03:05:02Z</time></trkpt><trkpt lat="59.4402470626" lon="30.2572180331"><ele>71.20</ele><time>2026-08-30T03:05:17Z</time></trkpt><trkpt lat="59.4402776565" lon="30.2573119942"><ele>71.28</ele><time>2026-08-30T03:05:22Z</time></trkpt><trkpt lat="59.4402974378" lon="30.2574261557"><ele>71.25</ele><time>2026-08-30T03:05:27Z</time></trkpt><trkpt lat="59.4403651636" lon="30.2578022517"><ele>71.17</ele><time>2026-08-30T03:05:44Z</time></trkpt><trkpt lat="59.4404437859" lon="30.2580335923"><ele>70.86</ele><time>2026-08-30T03:05:54Z</time></trkpt><trkpt lat="59.4405005313" lon="30.2581930999"><ele>70.85</ele><time>2026-08-30T03:06:02Z</time></trkpt><trkpt lat="59.4405688439" lon="30.2582925931"><ele>70.70</ele><time>2026-08-30T03:06:08Z</time></trkpt><trkpt lat="59.4406817481" lon="30.2585466485"><ele>70.62</ele><time>2026-08-30T03:06:23Z</time></trkpt><trkpt lat="59.4407211430" lon="30.2586800884"><ele>70.59</ele><time>2026-08-30T03:06:30Z</time></trkpt><trkpt lat="59.4407952391" lon="30.2588570304"><ele>70.65</ele><time>2026-08-30T03:06:41Z</time></trkpt><trkpt lat="59.4409821555" lon="30.2590544242"><ele>70.69</ele><time>2026-08-30T03:06:57Z</time></trkpt><trkpt lat="59.4410062954" lon="30.2590855211"><ele>70.72</ele><time>2026-08-30T03:06:59Z</time></trkpt><trkpt lat="59.4410652202" lon="30.2591817454"><ele>70.70</ele><time>2026-08-30T03:07:05Z</time></trkpt><trkpt lat="59.4411372207" lon="30.2592811547"><ele>70.95</ele><time>2026-08-30T03:07:14Z</time></trkpt><trkpt lat="59.4412987400" lon="30.2595830709"><ele>71.34</ele><time>2026-08-30T03:07:30Z</time></trkpt><trkpt lat="59.4413645379" lon="30.2596627828"><ele>71.48</ele><time>2026-08-30T03:07:42Z</time></trkpt><trkpt lat="59.4415783603" lon="30.2599660400"><ele>70.97</ele><time>2026-08-30T03:08:01Z</time></trkpt><trkpt lat="59.4415988121" lon="30.2600006573"><ele>70.98</ele><time>2026-08-30T03:08:03Z</time></trkpt><trkpt lat="59.4416624308" lon="30.2601137292"><ele>71.01</ele><time>2026-08-30T03:08:10Z</time></trkpt><trkpt lat="59.4418534543" lon="30.2603050880"><ele>70.85</ele><time>2026-08-30T03:08:27Z</time></trkpt><trkpt lat="59.4418980461" lon="30.2603454888"><ele>70.88</ele><time>2026-08-30T03:08:31Z</time></trkpt><trkpt lat="59.4419432245" lon="30.2603934333"><ele>70.95</ele><time>2026-08-30T03:08:36Z</time></trkpt><trkpt lat="59.4419785962" lon="30.2604180761"><ele>70.87</ele><time>2026-08-30T03:08:39Z</time></trkpt><trkpt lat="59.4420419633" lon="30.2604480833"><ele>70.89</ele><time>2026-08-30T03:08:45Z</time></trkpt><trkpt lat="59.4421939272" lon="30.2604905795"><ele>70.56</ele><time>2026-08-30T03:08:59Z</time></trkpt><trkpt lat="59.4422159716" lon="30.2604929265"><ele>70.47</ele><time>2026-08-30T03:09:01Z</time></trkpt><trkpt lat="59.4422812667" lon="30.2605206706"><ele>70.41</ele><time>2026-08-30T03:09:07Z</time></trkpt><trkpt lat="59.4423198234" lon="30.2605136298"><ele>70.31</ele><time>2026-08-30T03:09:10Z</time></trkpt><trkpt lat="59.4424311351" lon="30.2605664358"><ele>70.29</ele><time>2026-08-30T03:09:18Z</time></trkpt><trkpt lat="59.4424561970" lon="30.2605761588"><ele>70.38</ele><time>2026-08-30T03:09:20Z</time></trkpt><trkpt lat="59.4424831867" lon="30.2605810203"><ele>70.32</ele><time>2026-08-30T03:09:23Z</time></trkpt><trkpt lat="59.4425478950" lon="30.2605910785"><ele>70.37</ele><time>2026-08-30T03:09:28Z</time></trkpt><trkpt lat="59.4426254276" lon="30.2606409509"><ele>70.38</ele><time>2026-08-30T03:09:34Z</time></trkpt><trkpt lat="59.4426665828" lon="30.2606356703"><ele>70.25</ele><time>2026-08-30T03:09:37Z</time></trkpt><trkpt lat="59.4427058939" lon="30.2606339939"><ele>70.27</ele><time>2026-08-30T03:09:40Z</time></trkpt><trkpt lat="59.4427667465" lon="30.2606646717"><ele>70.06</ele><time>2026-08-30T03:09:46Z</time></trkpt><trkpt lat="59.4429695886" lon="30.2607934177"><ele>70.03</ele><time>2026-08-30T03:10:03Z</time></trkpt><trkpt lat="59.4430473726" lon="30.2608213294"><ele>70.25</ele><time>2026-08-30T03:10:10Z</time></trkpt><trkpt lat="59.4430359732" lon="30.2609604690"><ele>70.28</ele><time>2026-08-30T03:10:16Z</time></trkpt><trkpt lat="59.4428960793" lon="30.2612863574"><ele>70.39</ele><time>2026-08-30T03:10:37Z</time></trkpt><trkpt lat="59.4428890385" lon="30.2613262553"><ele>69.53</ele><time>2026-08-30T03:10:59Z</time></trkpt><trkpt lat="59.4428793993" lon="30.2613257524"><ele>70.06</ele><time>2026-08-30T03:11:25Z</time></trkpt><trkpt lat="59.4428933971" lon="30.2612791490"><ele>69.92</ele><time>2026-08-30T03:12:15Z</time></trkpt><trkpt lat="59.4429034553" lon="30.2612718567"><ele>70.05</ele><time>2026-08-30T03:13:15Z</time></trkpt><trkpt lat="59.4429142680" lon="30.2612877823"><ele>70.07</ele><time>2026-08-30T03:14:37Z</time></trkpt><trkpt lat="59.4429177884" lon="30.2612786461"><ele>70.24</ele><time>2026-08-30T03:15:20Z</time></trkpt><trkpt lat="59.4429150224" lon="30.2613063902"><ele>69.52</ele><time>2026-08-30T03:15:51Z</time></trkpt></trkseg></trk></gpx>